<?xml version="1.0" encoding="UTF-8" standalone="no" ?>
<gpx xmlns="http://www.topografix.com/GPX/1/1" xmlns:xsi="http://www.w3.org/2001/XMLSchema-instance" xsi:schemaLocation="http://www.topografix.com/GPX/1/1 http://www.topografix.com/GPX/1/1/gpx.xsd" version="1.1" creator="VisuGPX - https://www.visugpx.com">
  <metadata>
    <name>Saint-Côme du mont</name>
    <desc><![CDATA[Autour et à travers le marais du Bessin. Le chemin emprunte de nombreuses petites routes. Quelques beaux manoirs, quelques lavoirs et une visite inévitable à l'église de Angoville-au-plain, ou des actes de bravoures se sont déroulés dans les premiers jours du débarquement.(Panneau explicatif devant l'église)]]></desc>
  </metadata>
  <trk>
    <name><![CDATA[26 juil. 2023 à 10:21:43]]></name>
    <extensions>
      <line xmlns="http://www.topografix.com/GPX/gpx_style/0/2">
        <color>0000FF</color>
        <width>4</width>
      </line>
    </extensions>
    <trkseg>
      <trkpt lat="49.32026" lon="-1.26542">
        <ele>3</ele>
        <time>2023-07-26T08:21:44Z</time>
      </trkpt>
      <trkpt lat="49.32028" lon="-1.26542">
        <ele>3</ele>
        <time>2023-07-26T08:21:49Z</time>
      </trkpt>
      <trkpt lat="49.32034" lon="-1.2653">
        <ele>5</ele>
        <time>2023-07-26T08:24:35Z</time>
      </trkpt>
      <trkpt lat="49.32036" lon="-1.26523">
        <ele>5</ele>
        <time>2023-07-26T08:24:40Z</time>
      </trkpt>
      <trkpt lat="49.32037" lon="-1.26515">
        <ele>5</ele>
        <time>2023-07-26T08:24:44Z</time>
      </trkpt>
      <trkpt lat="49.3204" lon="-1.26502">
        <ele>6</ele>
        <time>2023-07-26T08:24:52Z</time>
      </trkpt>
      <trkpt lat="49.32044" lon="-1.26497">
        <ele>6</ele>
        <time>2023-07-26T08:24:57Z</time>
      </trkpt>
      <trkpt lat="49.32048" lon="-1.26496">
        <ele>7</ele>
        <time>2023-07-26T08:25:01Z</time>
      </trkpt>
      <trkpt lat="49.32055" lon="-1.26495">
        <ele>7</ele>
        <time>2023-07-26T08:25:18Z</time>
      </trkpt>
      <trkpt lat="49.32077" lon="-1.26504">
        <ele>7</ele>
        <time>2023-07-26T08:25:38Z</time>
      </trkpt>
      <trkpt lat="49.32083" lon="-1.26504">
        <ele>7</ele>
        <time>2023-07-26T08:25:43Z</time>
      </trkpt>
      <trkpt lat="49.32087" lon="-1.26507">
        <ele>7</ele>
        <time>2023-07-26T08:25:47Z</time>
      </trkpt>
      <trkpt lat="49.32093" lon="-1.26508">
        <ele>7</ele>
        <time>2023-07-26T08:25:55Z</time>
      </trkpt>
      <trkpt lat="49.32097" lon="-1.2651">
        <ele>7</ele>
        <time>2023-07-26T08:25:59Z</time>
      </trkpt>
      <trkpt lat="49.32102" lon="-1.26513">
        <ele>7</ele>
        <time>2023-07-26T08:26:03Z</time>
      </trkpt>
      <trkpt lat="49.32103" lon="-1.2652">
        <ele>7</ele>
        <time>2023-07-26T08:26:07Z</time>
      </trkpt>
      <trkpt lat="49.3211" lon="-1.26538">
        <ele>6</ele>
        <time>2023-07-26T08:26:19Z</time>
      </trkpt>
      <trkpt lat="49.32139" lon="-1.26564">
        <ele>5</ele>
        <time>2023-07-26T08:26:47Z</time>
      </trkpt>
      <trkpt lat="49.32148" lon="-1.26569">
        <ele>5</ele>
        <time>2023-07-26T08:26:55Z</time>
      </trkpt>
      <trkpt lat="49.32152" lon="-1.26568">
        <ele>5</ele>
        <time>2023-07-26T08:27:00Z</time>
      </trkpt>
      <trkpt lat="49.32153" lon="-1.26561">
        <ele>5</ele>
        <time>2023-07-26T08:27:05Z</time>
      </trkpt>
      <trkpt lat="49.32156" lon="-1.26556">
        <ele>5</ele>
        <time>2023-07-26T08:27:09Z</time>
      </trkpt>
      <trkpt lat="49.32162" lon="-1.26558">
        <ele>5</ele>
        <time>2023-07-26T08:27:14Z</time>
      </trkpt>
      <trkpt lat="49.32179" lon="-1.26571">
        <ele>5</ele>
        <time>2023-07-26T08:27:30Z</time>
      </trkpt>
      <trkpt lat="49.32183" lon="-1.26569">
        <ele>5</ele>
        <time>2023-07-26T08:27:35Z</time>
      </trkpt>
      <trkpt lat="49.32186" lon="-1.26564">
        <ele>5</ele>
        <time>2023-07-26T08:27:40Z</time>
      </trkpt>
      <trkpt lat="49.32188" lon="-1.26557">
        <ele>6</ele>
        <time>2023-07-26T08:28:01Z</time>
      </trkpt>
      <trkpt lat="49.32189" lon="-1.2655">
        <ele>6</ele>
        <time>2023-07-26T08:28:05Z</time>
      </trkpt>
      <trkpt lat="49.32193" lon="-1.26543">
        <ele>5</ele>
        <time>2023-07-26T08:28:55Z</time>
      </trkpt>
      <trkpt lat="49.32196" lon="-1.26537">
        <ele>5</ele>
        <time>2023-07-26T08:28:59Z</time>
      </trkpt>
      <trkpt lat="49.32198" lon="-1.2653">
        <ele>5</ele>
        <time>2023-07-26T08:29:04Z</time>
      </trkpt>
      <trkpt lat="49.32201" lon="-1.26525">
        <ele>5</ele>
        <time>2023-07-26T08:29:08Z</time>
      </trkpt>
      <trkpt lat="49.3221" lon="-1.26494">
        <ele>5</ele>
        <time>2023-07-26T08:29:30Z</time>
      </trkpt>
      <trkpt lat="49.32212" lon="-1.26482">
        <ele>5</ele>
        <time>2023-07-26T08:29:40Z</time>
      </trkpt>
      <trkpt lat="49.32223" lon="-1.26449">
        <ele>4</ele>
        <time>2023-07-26T08:30:51Z</time>
      </trkpt>
      <trkpt lat="49.32231" lon="-1.26432">
        <ele>4</ele>
        <time>2023-07-26T08:31:04Z</time>
      </trkpt>
      <trkpt lat="49.32235" lon="-1.26427">
        <ele>4</ele>
        <time>2023-07-26T08:31:08Z</time>
      </trkpt>
      <trkpt lat="49.32262" lon="-1.26387">
        <ele>4</ele>
        <time>2023-07-26T08:31:40Z</time>
      </trkpt>
      <trkpt lat="49.32281" lon="-1.26352">
        <ele>4</ele>
        <time>2023-07-26T08:32:04Z</time>
      </trkpt>
      <trkpt lat="49.32299" lon="-1.26299">
        <ele>4</ele>
        <time>2023-07-26T08:32:36Z</time>
      </trkpt>
      <trkpt lat="49.32322" lon="-1.26249">
        <ele>4</ele>
        <time>2023-07-26T08:33:08Z</time>
      </trkpt>
      <trkpt lat="49.32342" lon="-1.26209">
        <ele>4</ele>
        <time>2023-07-26T08:33:41Z</time>
      </trkpt>
      <trkpt lat="49.32367" lon="-1.26164">
        <ele>4</ele>
        <time>2023-07-26T08:34:14Z</time>
      </trkpt>
      <trkpt lat="49.32393" lon="-1.26123">
        <ele>4</ele>
        <time>2023-07-26T08:34:46Z</time>
      </trkpt>
      <trkpt lat="49.32418" lon="-1.26079">
        <ele>4</ele>
        <time>2023-07-26T08:35:18Z</time>
      </trkpt>
      <trkpt lat="49.32421" lon="-1.26073">
        <ele>4</ele>
        <time>2023-07-26T08:35:22Z</time>
      </trkpt>
      <trkpt lat="49.32427" lon="-1.26065">
        <ele>6</ele>
        <time>2023-07-26T08:38:23Z</time>
      </trkpt>
      <trkpt lat="49.32452" lon="-1.26017">
        <ele>5</ele>
        <time>2023-07-26T08:38:55Z</time>
      </trkpt>
      <trkpt lat="49.32477" lon="-1.25969">
        <ele>5</ele>
        <time>2023-07-26T08:39:27Z</time>
      </trkpt>
      <trkpt lat="49.32485" lon="-1.25959">
        <ele>5</ele>
        <time>2023-07-26T08:39:35Z</time>
      </trkpt>
      <trkpt lat="49.32489" lon="-1.25956">
        <ele>5</ele>
        <time>2023-07-26T08:39:39Z</time>
      </trkpt>
      <trkpt lat="49.32495" lon="-1.25957">
        <ele>5</ele>
        <time>2023-07-26T08:39:43Z</time>
      </trkpt>
      <trkpt lat="49.32529" lon="-1.25985">
        <ele>5</ele>
        <time>2023-07-26T08:40:16Z</time>
      </trkpt>
      <trkpt lat="49.32543" lon="-1.25992">
        <ele>5</ele>
        <time>2023-07-26T08:40:28Z</time>
      </trkpt>
      <trkpt lat="49.32558" lon="-1.25994">
        <ele>5</ele>
        <time>2023-07-26T08:40:40Z</time>
      </trkpt>
      <trkpt lat="49.32597" lon="-1.25983">
        <ele>4</ele>
        <time>2023-07-26T08:41:12Z</time>
      </trkpt>
      <trkpt lat="49.32618" lon="-1.25979">
        <ele>4</ele>
        <time>2023-07-26T08:44:11Z</time>
      </trkpt>
      <trkpt lat="49.32658" lon="-1.25966">
        <ele>4</ele>
        <time>2023-07-26T08:44:41Z</time>
      </trkpt>
      <trkpt lat="49.32699" lon="-1.25954">
        <ele>3</ele>
        <time>2023-07-26T08:45:13Z</time>
      </trkpt>
      <trkpt lat="49.3271" lon="-1.2595">
        <ele>3</ele>
        <time>2023-07-26T08:45:21Z</time>
      </trkpt>
      <trkpt lat="49.32715" lon="-1.25951">
        <ele>3</ele>
        <time>2023-07-26T08:45:25Z</time>
      </trkpt>
      <trkpt lat="49.32738" lon="-1.25942">
        <ele>3</ele>
        <time>2023-07-26T08:48:11Z</time>
      </trkpt>
      <trkpt lat="49.32777" lon="-1.25931">
        <ele>3</ele>
        <time>2023-07-26T08:48:43Z</time>
      </trkpt>
      <trkpt lat="49.328" lon="-1.2592">
        <ele>3</ele>
        <time>2023-07-26T08:49:03Z</time>
      </trkpt>
      <trkpt lat="49.32803" lon="-1.25916">
        <ele>3</ele>
        <time>2023-07-26T08:49:07Z</time>
      </trkpt>
      <trkpt lat="49.32811" lon="-1.25906">
        <ele>3</ele>
        <time>2023-07-26T08:49:16Z</time>
      </trkpt>
      <trkpt lat="49.32845" lon="-1.25873">
        <ele>3</ele>
        <time>2023-07-26T08:49:49Z</time>
      </trkpt>
      <trkpt lat="49.32871" lon="-1.2585">
        <ele>3</ele>
        <time>2023-07-26T08:50:13Z</time>
      </trkpt>
      <trkpt lat="49.32876" lon="-1.25851">
        <ele>3</ele>
        <time>2023-07-26T08:50:17Z</time>
      </trkpt>
      <trkpt lat="49.32885" lon="-1.25856">
        <ele>3</ele>
        <time>2023-07-26T08:50:25Z</time>
      </trkpt>
      <trkpt lat="49.3291" lon="-1.25891">
        <ele>3</ele>
        <time>2023-07-26T08:50:53Z</time>
      </trkpt>
      <trkpt lat="49.32937" lon="-1.25935">
        <ele>3</ele>
        <time>2023-07-26T08:51:25Z</time>
      </trkpt>
      <trkpt lat="49.32962" lon="-1.25977">
        <ele>3</ele>
        <time>2023-07-26T08:51:59Z</time>
      </trkpt>
      <trkpt lat="49.32988" lon="-1.26021">
        <ele>3</ele>
        <time>2023-07-26T08:52:31Z</time>
      </trkpt>
      <trkpt lat="49.32992" lon="-1.26027">
        <ele>3</ele>
        <time>2023-07-26T08:52:35Z</time>
      </trkpt>
      <trkpt lat="49.32996" lon="-1.26031">
        <ele>3</ele>
        <time>2023-07-26T08:52:39Z</time>
      </trkpt>
      <trkpt lat="49.33021" lon="-1.26074">
        <ele>3</ele>
        <time>2023-07-26T08:53:11Z</time>
      </trkpt>
      <trkpt lat="49.33045" lon="-1.2612">
        <ele>3</ele>
        <time>2023-07-26T08:53:45Z</time>
      </trkpt>
      <trkpt lat="49.33051" lon="-1.26132">
        <ele>3</ele>
        <time>2023-07-26T08:53:54Z</time>
      </trkpt>
      <trkpt lat="49.33064" lon="-1.2615">
        <ele>3</ele>
        <time>2023-07-26T08:54:22Z</time>
      </trkpt>
      <trkpt lat="49.33078" lon="-1.2616">
        <ele>3</ele>
        <time>2023-07-26T08:54:34Z</time>
      </trkpt>
      <trkpt lat="49.33087" lon="-1.26167">
        <ele>5</ele>
        <time>2023-07-26T08:55:44Z</time>
      </trkpt>
      <trkpt lat="49.33092" lon="-1.26171">
        <ele>6</ele>
        <time>2023-07-26T08:56:20Z</time>
      </trkpt>
      <trkpt lat="49.33097" lon="-1.26174">
        <ele>6</ele>
        <time>2023-07-26T08:56:24Z</time>
      </trkpt>
      <trkpt lat="49.33111" lon="-1.26175">
        <ele>8</ele>
        <time>2023-07-26T08:56:37Z</time>
      </trkpt>
      <trkpt lat="49.33115" lon="-1.26174">
        <ele>9</ele>
        <time>2023-07-26T08:56:42Z</time>
      </trkpt>
      <trkpt lat="49.33116" lon="-1.26184">
        <ele>10</ele>
        <time>2023-07-26T08:56:52Z</time>
      </trkpt>
      <trkpt lat="49.33114" lon="-1.26191">
        <ele>10</ele>
        <time>2023-07-26T08:56:57Z</time>
      </trkpt>
      <trkpt lat="49.33113" lon="-1.26198">
        <ele>10</ele>
        <time>2023-07-26T08:57:02Z</time>
      </trkpt>
      <trkpt lat="49.33111" lon="-1.26213">
        <ele>10</ele>
        <time>2023-07-26T08:57:15Z</time>
      </trkpt>
      <trkpt lat="49.3311" lon="-1.26219">
        <ele>11</ele>
        <time>2023-07-26T08:58:09Z</time>
      </trkpt>
      <trkpt lat="49.33107" lon="-1.26223">
        <ele>10</ele>
        <time>2023-07-26T08:58:14Z</time>
      </trkpt>
      <trkpt lat="49.33097" lon="-1.26255">
        <ele>10</ele>
        <time>2023-07-26T08:58:42Z</time>
      </trkpt>
      <trkpt lat="49.33092" lon="-1.26254">
        <ele>10</ele>
        <time>2023-07-26T08:59:22Z</time>
      </trkpt>
      <trkpt lat="49.3309" lon="-1.2626">
        <ele>10</ele>
        <time>2023-07-26T08:59:26Z</time>
      </trkpt>
      <trkpt lat="49.33089" lon="-1.26266">
        <ele>10</ele>
        <time>2023-07-26T08:59:30Z</time>
      </trkpt>
      <trkpt lat="49.33092" lon="-1.26266">
        <ele>10</ele>
        <time>2023-07-26T08:59:58Z</time>
      </trkpt>
      <trkpt lat="49.33097" lon="-1.26253">
        <ele>9</ele>
        <time>2023-07-26T09:00:07Z</time>
      </trkpt>
      <trkpt lat="49.33111" lon="-1.26216">
        <ele>10</ele>
        <time>2023-07-26T09:00:32Z</time>
      </trkpt>
      <trkpt lat="49.33124" lon="-1.26162">
        <ele>8</ele>
        <time>2023-07-26T09:01:04Z</time>
      </trkpt>
      <trkpt lat="49.33146" lon="-1.26111">
        <ele>9</ele>
        <time>2023-07-26T09:01:37Z</time>
      </trkpt>
      <trkpt lat="49.33167" lon="-1.26061">
        <ele>9</ele>
        <time>2023-07-26T09:02:09Z</time>
      </trkpt>
      <trkpt lat="49.33189" lon="-1.26012">
        <ele>8</ele>
        <time>2023-07-26T09:02:41Z</time>
      </trkpt>
      <trkpt lat="49.33207" lon="-1.25957">
        <ele>6</ele>
        <time>2023-07-26T09:03:13Z</time>
      </trkpt>
      <trkpt lat="49.33215" lon="-1.2593">
        <ele>6</ele>
        <time>2023-07-26T09:03:29Z</time>
      </trkpt>
      <trkpt lat="49.33221" lon="-1.25902">
        <ele>6</ele>
        <time>2023-07-26T09:03:42Z</time>
      </trkpt>
      <trkpt lat="49.33221" lon="-1.25891">
        <ele>6</ele>
        <time>2023-07-26T09:03:52Z</time>
      </trkpt>
      <trkpt lat="49.33222" lon="-1.25894">
        <ele>6</ele>
        <time>2023-07-26T09:03:59Z</time>
      </trkpt>
      <trkpt lat="49.33225" lon="-1.25878">
        <ele>6</ele>
        <time>2023-07-26T09:04:10Z</time>
      </trkpt>
      <trkpt lat="49.33223" lon="-1.2587">
        <ele>7</ele>
        <time>2023-07-26T09:04:14Z</time>
      </trkpt>
      <trkpt lat="49.3322" lon="-1.25863">
        <ele>7</ele>
        <time>2023-07-26T09:04:18Z</time>
      </trkpt>
      <trkpt lat="49.33211" lon="-1.25856">
        <ele>7</ele>
        <time>2023-07-26T09:04:25Z</time>
      </trkpt>
      <trkpt lat="49.33202" lon="-1.25848">
        <ele>6</ele>
        <time>2023-07-26T09:04:33Z</time>
      </trkpt>
      <trkpt lat="49.33198" lon="-1.25844">
        <ele>7</ele>
        <time>2023-07-26T09:04:37Z</time>
      </trkpt>
      <trkpt lat="49.33191" lon="-1.25835">
        <ele>6</ele>
        <time>2023-07-26T09:04:45Z</time>
      </trkpt>
      <trkpt lat="49.33187" lon="-1.2583">
        <ele>6</ele>
        <time>2023-07-26T09:04:49Z</time>
      </trkpt>
      <trkpt lat="49.33169" lon="-1.25806">
        <ele>6</ele>
        <time>2023-07-26T09:05:09Z</time>
      </trkpt>
      <trkpt lat="49.33152" lon="-1.25788">
        <ele>4</ele>
        <time>2023-07-26T09:05:27Z</time>
      </trkpt>
      <trkpt lat="49.33137" lon="-1.25768">
        <ele>4</ele>
        <time>2023-07-26T09:05:43Z</time>
      </trkpt>
      <trkpt lat="49.33125" lon="-1.25757">
        <ele>4</ele>
        <time>2023-07-26T09:05:55Z</time>
      </trkpt>
      <trkpt lat="49.33113" lon="-1.25744">
        <ele>4</ele>
        <time>2023-07-26T09:06:08Z</time>
      </trkpt>
      <trkpt lat="49.33112" lon="-1.25737">
        <ele>4</ele>
        <time>2023-07-26T09:06:12Z</time>
      </trkpt>
      <trkpt lat="49.3308" lon="-1.25698">
        <ele>4</ele>
        <time>2023-07-26T09:06:44Z</time>
      </trkpt>
      <trkpt lat="49.3305" lon="-1.25659">
        <ele>4</ele>
        <time>2023-07-26T09:07:16Z</time>
      </trkpt>
      <trkpt lat="49.33021" lon="-1.25621">
        <ele>4</ele>
        <time>2023-07-26T09:07:48Z</time>
      </trkpt>
      <trkpt lat="49.32992" lon="-1.25584">
        <ele>4</ele>
        <time>2023-07-26T09:08:20Z</time>
      </trkpt>
      <trkpt lat="49.32963" lon="-1.25546">
        <ele>4</ele>
        <time>2023-07-26T09:08:52Z</time>
      </trkpt>
      <trkpt lat="49.32955" lon="-1.25536">
        <ele>4</ele>
        <time>2023-07-26T09:09:00Z</time>
      </trkpt>
      <trkpt lat="49.32945" lon="-1.25522">
        <ele>4</ele>
        <time>2023-07-26T09:09:12Z</time>
      </trkpt>
      <trkpt lat="49.32941" lon="-1.25517">
        <ele>4</ele>
        <time>2023-07-26T09:09:16Z</time>
      </trkpt>
      <trkpt lat="49.32915" lon="-1.25482">
        <ele>3</ele>
        <time>2023-07-26T09:09:46Z</time>
      </trkpt>
      <trkpt lat="49.32911" lon="-1.25477">
        <ele>3</ele>
        <time>2023-07-26T09:09:50Z</time>
      </trkpt>
      <trkpt lat="49.32908" lon="-1.25472">
        <ele>4</ele>
        <time>2023-07-26T09:09:54Z</time>
      </trkpt>
      <trkpt lat="49.32889" lon="-1.25448">
        <ele>4</ele>
        <time>2023-07-26T09:10:14Z</time>
      </trkpt>
      <trkpt lat="49.32886" lon="-1.25443">
        <ele>4</ele>
        <time>2023-07-26T09:10:18Z</time>
      </trkpt>
      <trkpt lat="49.32883" lon="-1.25438">
        <ele>4</ele>
        <time>2023-07-26T09:10:22Z</time>
      </trkpt>
      <trkpt lat="49.32879" lon="-1.25433">
        <ele>4</ele>
        <time>2023-07-26T09:10:26Z</time>
      </trkpt>
      <trkpt lat="49.3285" lon="-1.25394">
        <ele>3</ele>
        <time>2023-07-26T09:10:58Z</time>
      </trkpt>
      <trkpt lat="49.32835" lon="-1.25375">
        <ele>3</ele>
        <time>2023-07-26T09:11:14Z</time>
      </trkpt>
      <trkpt lat="49.32831" lon="-1.25373">
        <ele>3</ele>
        <time>2023-07-26T09:11:19Z</time>
      </trkpt>
      <trkpt lat="49.32826" lon="-1.25366">
        <ele>3</ele>
        <time>2023-07-26T09:11:29Z</time>
      </trkpt>
      <trkpt lat="49.32823" lon="-1.2536">
        <ele>4</ele>
        <time>2023-07-26T09:11:33Z</time>
      </trkpt>
      <trkpt lat="49.32794" lon="-1.2532">
        <ele>3</ele>
        <time>2023-07-26T09:12:05Z</time>
      </trkpt>
      <trkpt lat="49.32765" lon="-1.25279">
        <ele>3</ele>
        <time>2023-07-26T09:12:37Z</time>
      </trkpt>
      <trkpt lat="49.32748" lon="-1.25253">
        <ele>3</ele>
        <time>2023-07-26T09:12:57Z</time>
      </trkpt>
      <trkpt lat="49.32744" lon="-1.25249">
        <ele>4</ele>
        <time>2023-07-26T09:13:01Z</time>
      </trkpt>
      <trkpt lat="49.32733" lon="-1.25233">
        <ele>4</ele>
        <time>2023-07-26T09:13:13Z</time>
      </trkpt>
      <trkpt lat="49.32705" lon="-1.25194">
        <ele>4</ele>
        <time>2023-07-26T09:13:45Z</time>
      </trkpt>
      <trkpt lat="49.32694" lon="-1.25179">
        <ele>4</ele>
        <time>2023-07-26T09:13:57Z</time>
      </trkpt>
      <trkpt lat="49.32669" lon="-1.25143">
        <ele>4</ele>
        <time>2023-07-26T09:14:25Z</time>
      </trkpt>
      <trkpt lat="49.32668" lon="-1.25136">
        <ele>4</ele>
        <time>2023-07-26T09:14:29Z</time>
      </trkpt>
      <trkpt lat="49.32663" lon="-1.25109">
        <ele>4</ele>
        <time>2023-07-26T09:14:45Z</time>
      </trkpt>
      <trkpt lat="49.32664" lon="-1.25102">
        <ele>4</ele>
        <time>2023-07-26T09:14:49Z</time>
      </trkpt>
      <trkpt lat="49.32665" lon="-1.25088">
        <ele>4</ele>
        <time>2023-07-26T09:14:57Z</time>
      </trkpt>
      <trkpt lat="49.32666" lon="-1.25076">
        <ele>4</ele>
        <time>2023-07-26T09:15:42Z</time>
      </trkpt>
      <trkpt lat="49.32675" lon="-1.25023">
        <ele>4</ele>
        <time>2023-07-26T09:16:14Z</time>
      </trkpt>
      <trkpt lat="49.3268" lon="-1.24996">
        <ele>4</ele>
        <time>2023-07-26T09:16:30Z</time>
      </trkpt>
      <trkpt lat="49.32683" lon="-1.24988">
        <ele>4</ele>
        <time>2023-07-26T09:18:33Z</time>
      </trkpt>
      <trkpt lat="49.32683" lon="-1.24981">
        <ele>4</ele>
        <time>2023-07-26T09:18:37Z</time>
      </trkpt>
      <trkpt lat="49.32693" lon="-1.24932">
        <ele>4</ele>
        <time>2023-07-26T09:19:07Z</time>
      </trkpt>
      <trkpt lat="49.32704" lon="-1.24878">
        <ele>3</ele>
        <time>2023-07-26T09:19:39Z</time>
      </trkpt>
      <trkpt lat="49.32713" lon="-1.2482">
        <ele>3</ele>
        <time>2023-07-26T09:20:12Z</time>
      </trkpt>
      <trkpt lat="49.3272" lon="-1.24786">
        <ele>3</ele>
        <time>2023-07-26T09:20:32Z</time>
      </trkpt>
      <trkpt lat="49.32734" lon="-1.24758">
        <ele>3</ele>
        <time>2023-07-26T09:20:52Z</time>
      </trkpt>
      <trkpt lat="49.32754" lon="-1.24719">
        <ele>4</ele>
        <time>2023-07-26T09:21:20Z</time>
      </trkpt>
      <trkpt lat="49.32763" lon="-1.24688">
        <ele>4</ele>
        <time>2023-07-26T09:21:43Z</time>
      </trkpt>
      <trkpt lat="49.32777" lon="-1.24632">
        <ele>4</ele>
        <time>2023-07-26T09:22:15Z</time>
      </trkpt>
      <trkpt lat="49.32786" lon="-1.24597">
        <ele>3</ele>
        <time>2023-07-26T09:22:35Z</time>
      </trkpt>
      <trkpt lat="49.32786" lon="-1.2459">
        <ele>3</ele>
        <time>2023-07-26T09:22:39Z</time>
      </trkpt>
      <trkpt lat="49.3278" lon="-1.24585">
        <ele>3</ele>
        <time>2023-07-26T09:23:17Z</time>
      </trkpt>
      <trkpt lat="49.32778" lon="-1.24577">
        <ele>3</ele>
        <time>2023-07-26T09:23:22Z</time>
      </trkpt>
      <trkpt lat="49.32774" lon="-1.24574">
        <ele>3</ele>
        <time>2023-07-26T09:23:26Z</time>
      </trkpt>
      <trkpt lat="49.32761" lon="-1.24569">
        <ele>3</ele>
        <time>2023-07-26T09:23:38Z</time>
      </trkpt>
      <trkpt lat="49.32752" lon="-1.24567">
        <ele>4</ele>
        <time>2023-07-26T09:23:46Z</time>
      </trkpt>
      <trkpt lat="49.32732" lon="-1.24564">
        <ele>3</ele>
        <time>2023-07-26T09:24:02Z</time>
      </trkpt>
      <trkpt lat="49.32728" lon="-1.24563">
        <ele>4</ele>
        <time>2023-07-26T09:24:06Z</time>
      </trkpt>
      <trkpt lat="49.32688" lon="-1.24556">
        <ele>3</ele>
        <time>2023-07-26T09:24:40Z</time>
      </trkpt>
      <trkpt lat="49.32674" lon="-1.24554">
        <ele>4</ele>
        <time>2023-07-26T09:24:52Z</time>
      </trkpt>
      <trkpt lat="49.32663" lon="-1.24551">
        <ele>4</ele>
        <time>2023-07-26T09:26:03Z</time>
      </trkpt>
      <trkpt lat="49.32657" lon="-1.2455">
        <ele>4</ele>
        <time>2023-07-26T09:26:07Z</time>
      </trkpt>
      <trkpt lat="49.32638" lon="-1.24547">
        <ele>4</ele>
        <time>2023-07-26T09:26:23Z</time>
      </trkpt>
      <trkpt lat="49.32633" lon="-1.24548">
        <ele>4</ele>
        <time>2023-07-26T09:26:27Z</time>
      </trkpt>
      <trkpt lat="49.32629" lon="-1.24546">
        <ele>4</ele>
        <time>2023-07-26T09:26:31Z</time>
      </trkpt>
      <trkpt lat="49.3261" lon="-1.24543">
        <ele>4</ele>
        <time>2023-07-26T09:26:47Z</time>
      </trkpt>
      <trkpt lat="49.32605" lon="-1.24542">
        <ele>4</ele>
        <time>2023-07-26T09:26:51Z</time>
      </trkpt>
      <trkpt lat="49.326" lon="-1.24543">
        <ele>4</ele>
        <time>2023-07-26T09:26:55Z</time>
      </trkpt>
      <trkpt lat="49.32595" lon="-1.24544">
        <ele>4</ele>
        <time>2023-07-26T09:26:59Z</time>
      </trkpt>
      <trkpt lat="49.32581" lon="-1.24551">
        <ele>4</ele>
        <time>2023-07-26T09:27:25Z</time>
      </trkpt>
      <trkpt lat="49.32576" lon="-1.2455">
        <ele>4</ele>
        <time>2023-07-26T09:27:30Z</time>
      </trkpt>
      <trkpt lat="49.32569" lon="-1.24553">
        <ele>4</ele>
        <time>2023-07-26T09:27:37Z</time>
      </trkpt>
      <trkpt lat="49.32565" lon="-1.24551">
        <ele>5</ele>
        <time>2023-07-26T09:27:46Z</time>
      </trkpt>
      <trkpt lat="49.32559" lon="-1.2455">
        <ele>4</ele>
        <time>2023-07-26T09:30:53Z</time>
      </trkpt>
      <trkpt lat="49.32557" lon="-1.24543">
        <ele>4</ele>
        <time>2023-07-26T09:31:50Z</time>
      </trkpt>
      <trkpt lat="49.32557" lon="-1.24547">
        <ele>4</ele>
        <time>2023-07-26T09:33:10Z</time>
      </trkpt>
      <trkpt lat="49.32564" lon="-1.24558">
        <ele>4</ele>
        <time>2023-07-26T09:33:20Z</time>
      </trkpt>
      <trkpt lat="49.32572" lon="-1.24562">
        <ele>3</ele>
        <time>2023-07-26T09:33:35Z</time>
      </trkpt>
      <trkpt lat="49.32574" lon="-1.24569">
        <ele>3</ele>
        <time>2023-07-26T09:33:39Z</time>
      </trkpt>
      <trkpt lat="49.32575" lon="-1.24577">
        <ele>3</ele>
        <time>2023-07-26T09:33:43Z</time>
      </trkpt>
      <trkpt lat="49.32575" lon="-1.24577">
        <ele>3</ele>
        <time>2023-07-26T09:34:43Z</time>
      </trkpt>
      <trkpt lat="49.32583" lon="-1.24566">
        <ele>3</ele>
        <time>2023-07-26T09:34:51Z</time>
      </trkpt>
      <trkpt lat="49.32588" lon="-1.24565">
        <ele>3</ele>
        <time>2023-07-26T09:34:56Z</time>
      </trkpt>
      <trkpt lat="49.32593" lon="-1.24567">
        <ele>3</ele>
        <time>2023-07-26T09:35:00Z</time>
      </trkpt>
      <trkpt lat="49.32597" lon="-1.24566">
        <ele>3</ele>
        <time>2023-07-26T09:36:15Z</time>
      </trkpt>
      <trkpt lat="49.32599" lon="-1.24558">
        <ele>3</ele>
        <time>2023-07-26T09:36:39Z</time>
      </trkpt>
      <trkpt lat="49.32606" lon="-1.24549">
        <ele>3</ele>
        <time>2023-07-26T09:36:47Z</time>
      </trkpt>
      <trkpt lat="49.3261" lon="-1.24545">
        <ele>3</ele>
        <time>2023-07-26T09:36:52Z</time>
      </trkpt>
      <trkpt lat="49.32644" lon="-1.24551">
        <ele>3</ele>
        <time>2023-07-26T09:37:22Z</time>
      </trkpt>
      <trkpt lat="49.32685" lon="-1.24557">
        <ele>3</ele>
        <time>2023-07-26T09:37:57Z</time>
      </trkpt>
      <trkpt lat="49.32722" lon="-1.24564">
        <ele>3</ele>
        <time>2023-07-26T09:38:30Z</time>
      </trkpt>
      <trkpt lat="49.32761" lon="-1.24572">
        <ele>3</ele>
        <time>2023-07-26T09:39:02Z</time>
      </trkpt>
      <trkpt lat="49.32775" lon="-1.24576">
        <ele>3</ele>
        <time>2023-07-26T09:39:15Z</time>
      </trkpt>
      <trkpt lat="49.32778" lon="-1.24581">
        <ele>3</ele>
        <time>2023-07-26T09:39:19Z</time>
      </trkpt>
      <trkpt lat="49.3278" lon="-1.24588">
        <ele>3</ele>
        <time>2023-07-26T09:39:24Z</time>
      </trkpt>
      <trkpt lat="49.32787" lon="-1.24585">
        <ele>3</ele>
        <time>2023-07-26T09:39:30Z</time>
      </trkpt>
      <trkpt lat="49.3279" lon="-1.2458">
        <ele>3</ele>
        <time>2023-07-26T09:39:34Z</time>
      </trkpt>
      <trkpt lat="49.32805" lon="-1.2453">
        <ele>3</ele>
        <time>2023-07-26T09:40:06Z</time>
      </trkpt>
      <trkpt lat="49.32819" lon="-1.24479">
        <ele>3</ele>
        <time>2023-07-26T09:40:38Z</time>
      </trkpt>
      <trkpt lat="49.32834" lon="-1.24427">
        <ele>3</ele>
        <time>2023-07-26T09:41:10Z</time>
      </trkpt>
      <trkpt lat="49.32846" lon="-1.24372">
        <ele>3</ele>
        <time>2023-07-26T09:41:42Z</time>
      </trkpt>
      <trkpt lat="49.32857" lon="-1.24331">
        <ele>3</ele>
        <time>2023-07-26T09:42:16Z</time>
      </trkpt>
      <trkpt lat="49.32871" lon="-1.24279">
        <ele>3</ele>
        <time>2023-07-26T09:42:48Z</time>
      </trkpt>
      <trkpt lat="49.32877" lon="-1.24259">
        <ele>3</ele>
        <time>2023-07-26T09:43:00Z</time>
      </trkpt>
      <trkpt lat="49.32882" lon="-1.2424">
        <ele>3</ele>
        <time>2023-07-26T09:43:12Z</time>
      </trkpt>
      <trkpt lat="49.32899" lon="-1.24189">
        <ele>2</ele>
        <time>2023-07-26T09:43:44Z</time>
      </trkpt>
      <trkpt lat="49.32914" lon="-1.24137">
        <ele>2</ele>
        <time>2023-07-26T09:44:16Z</time>
      </trkpt>
      <trkpt lat="49.32921" lon="-1.2411">
        <ele>2</ele>
        <time>2023-07-26T09:44:32Z</time>
      </trkpt>
      <trkpt lat="49.32924" lon="-1.24105">
        <ele>2</ele>
        <time>2023-07-26T09:44:36Z</time>
      </trkpt>
      <trkpt lat="49.32927" lon="-1.24103">
        <ele>2</ele>
        <time>2023-07-26T09:44:40Z</time>
      </trkpt>
      <trkpt lat="49.32934" lon="-1.24103">
        <ele>2</ele>
        <time>2023-07-26T09:46:40Z</time>
      </trkpt>
      <trkpt lat="49.32948" lon="-1.24105">
        <ele>2</ele>
        <time>2023-07-26T09:46:52Z</time>
      </trkpt>
      <trkpt lat="49.32965" lon="-1.24123">
        <ele>2</ele>
        <time>2023-07-26T09:47:08Z</time>
      </trkpt>
      <trkpt lat="49.32996" lon="-1.24163">
        <ele>1</ele>
        <time>2023-07-26T09:47:40Z</time>
      </trkpt>
      <trkpt lat="49.33" lon="-1.24168">
        <ele>2</ele>
        <time>2023-07-26T09:47:44Z</time>
      </trkpt>
      <trkpt lat="49.33032" lon="-1.24206">
        <ele>1</ele>
        <time>2023-07-26T09:48:16Z</time>
      </trkpt>
      <trkpt lat="49.33064" lon="-1.24242">
        <ele>1</ele>
        <time>2023-07-26T09:48:48Z</time>
      </trkpt>
      <trkpt lat="49.33095" lon="-1.24264">
        <ele>1</ele>
        <time>2023-07-26T09:49:16Z</time>
      </trkpt>
      <trkpt lat="49.33113" lon="-1.24276">
        <ele>1</ele>
        <time>2023-07-26T09:49:32Z</time>
      </trkpt>
      <trkpt lat="49.33124" lon="-1.24289">
        <ele>1</ele>
        <time>2023-07-26T09:49:44Z</time>
      </trkpt>
      <trkpt lat="49.33128" lon="-1.24294">
        <ele>1</ele>
        <time>2023-07-26T09:49:48Z</time>
      </trkpt>
      <trkpt lat="49.33154" lon="-1.24333">
        <ele>2</ele>
        <time>2023-07-26T09:50:21Z</time>
      </trkpt>
      <trkpt lat="49.33182" lon="-1.24376">
        <ele>2</ele>
        <time>2023-07-26T09:50:53Z</time>
      </trkpt>
      <trkpt lat="49.33206" lon="-1.24412">
        <ele>2</ele>
        <time>2023-07-26T09:51:21Z</time>
      </trkpt>
      <trkpt lat="49.33212" lon="-1.24424">
        <ele>2</ele>
        <time>2023-07-26T09:51:29Z</time>
      </trkpt>
      <trkpt lat="49.33238" lon="-1.24469">
        <ele>2</ele>
        <time>2023-07-26T09:52:01Z</time>
      </trkpt>
      <trkpt lat="49.33263" lon="-1.24513">
        <ele>2</ele>
        <time>2023-07-26T09:52:33Z</time>
      </trkpt>
      <trkpt lat="49.3329" lon="-1.24557">
        <ele>2</ele>
        <time>2023-07-26T09:53:05Z</time>
      </trkpt>
      <trkpt lat="49.33318" lon="-1.246">
        <ele>2</ele>
        <time>2023-07-26T09:53:37Z</time>
      </trkpt>
      <trkpt lat="49.33333" lon="-1.24629">
        <ele>2</ele>
        <time>2023-07-26T09:53:57Z</time>
      </trkpt>
      <trkpt lat="49.33337" lon="-1.24642">
        <ele>2</ele>
        <time>2023-07-26T09:54:05Z</time>
      </trkpt>
      <trkpt lat="49.33338" lon="-1.24657">
        <ele>1</ele>
        <time>2023-07-26T09:54:13Z</time>
      </trkpt>
      <trkpt lat="49.33336" lon="-1.24678">
        <ele>1</ele>
        <time>2023-07-26T09:54:25Z</time>
      </trkpt>
      <trkpt lat="49.33335" lon="-1.24685">
        <ele>2</ele>
        <time>2023-07-26T09:54:29Z</time>
      </trkpt>
      <trkpt lat="49.33335" lon="-1.24692">
        <ele>2</ele>
        <time>2023-07-26T09:54:33Z</time>
      </trkpt>
      <trkpt lat="49.33333" lon="-1.24714">
        <ele>2</ele>
        <time>2023-07-26T09:54:55Z</time>
      </trkpt>
      <trkpt lat="49.33331" lon="-1.2472">
        <ele>2</ele>
        <time>2023-07-26T09:54:59Z</time>
      </trkpt>
      <trkpt lat="49.33329" lon="-1.24726">
        <ele>2</ele>
        <time>2023-07-26T09:55:04Z</time>
      </trkpt>
      <trkpt lat="49.33317" lon="-1.24738">
        <ele>1</ele>
        <time>2023-07-26T09:55:16Z</time>
      </trkpt>
      <trkpt lat="49.33298" lon="-1.24761">
        <ele>2</ele>
        <time>2023-07-26T09:55:37Z</time>
      </trkpt>
      <trkpt lat="49.33291" lon="-1.24775">
        <ele>2</ele>
        <time>2023-07-26T09:59:03Z</time>
      </trkpt>
      <trkpt lat="49.33282" lon="-1.24784">
        <ele>2</ele>
        <time>2023-07-26T09:59:14Z</time>
      </trkpt>
      <trkpt lat="49.33257" lon="-1.24818">
        <ele>2</ele>
        <time>2023-07-26T09:59:45Z</time>
      </trkpt>
      <trkpt lat="49.33253" lon="-1.24822">
        <ele>2</ele>
        <time>2023-07-26T09:59:49Z</time>
      </trkpt>
      <trkpt lat="49.33226" lon="-1.24859">
        <ele>2</ele>
        <time>2023-07-26T10:00:21Z</time>
      </trkpt>
      <trkpt lat="49.33219" lon="-1.24869">
        <ele>2</ele>
        <time>2023-07-26T10:00:30Z</time>
      </trkpt>
      <trkpt lat="49.33216" lon="-1.24875">
        <ele>2</ele>
        <time>2023-07-26T10:00:34Z</time>
      </trkpt>
      <trkpt lat="49.33191" lon="-1.24916">
        <ele>2</ele>
        <time>2023-07-26T10:01:07Z</time>
      </trkpt>
      <trkpt lat="49.33166" lon="-1.2496">
        <ele>2</ele>
        <time>2023-07-26T10:01:39Z</time>
      </trkpt>
      <trkpt lat="49.33145" lon="-1.25008">
        <ele>1</ele>
        <time>2023-07-26T10:02:11Z</time>
      </trkpt>
      <trkpt lat="49.33126" lon="-1.25059">
        <ele>1</ele>
        <time>2023-07-26T10:02:43Z</time>
      </trkpt>
      <trkpt lat="49.33124" lon="-1.25065">
        <ele>1</ele>
        <time>2023-07-26T10:02:47Z</time>
      </trkpt>
      <trkpt lat="49.3312" lon="-1.25078">
        <ele>1</ele>
        <time>2023-07-26T10:02:55Z</time>
      </trkpt>
      <trkpt lat="49.33118" lon="-1.25085">
        <ele>1</ele>
        <time>2023-07-26T10:02:59Z</time>
      </trkpt>
      <trkpt lat="49.33105" lon="-1.25138">
        <ele>2</ele>
        <time>2023-07-26T10:03:31Z</time>
      </trkpt>
      <trkpt lat="49.33092" lon="-1.25192">
        <ele>2</ele>
        <time>2023-07-26T10:04:03Z</time>
      </trkpt>
      <trkpt lat="49.33081" lon="-1.25231">
        <ele>2</ele>
        <time>2023-07-26T10:04:27Z</time>
      </trkpt>
      <trkpt lat="49.3308" lon="-1.25239">
        <ele>2</ele>
        <time>2023-07-26T10:04:31Z</time>
      </trkpt>
      <trkpt lat="49.33082" lon="-1.25246">
        <ele>2</ele>
        <time>2023-07-26T10:04:35Z</time>
      </trkpt>
      <trkpt lat="49.33085" lon="-1.25251">
        <ele>2</ele>
        <time>2023-07-26T10:04:39Z</time>
      </trkpt>
      <trkpt lat="49.33093" lon="-1.25259">
        <ele>2</ele>
        <time>2023-07-26T10:04:47Z</time>
      </trkpt>
      <trkpt lat="49.33129" lon="-1.25279">
        <ele>2</ele>
        <time>2023-07-26T10:05:19Z</time>
      </trkpt>
      <trkpt lat="49.33137" lon="-1.25284">
        <ele>3</ele>
        <time>2023-07-26T10:05:27Z</time>
      </trkpt>
      <trkpt lat="49.33172" lon="-1.25303">
        <ele>2</ele>
        <time>2023-07-26T10:05:59Z</time>
      </trkpt>
      <trkpt lat="49.33186" lon="-1.25305">
        <ele>2</ele>
        <time>2023-07-26T10:06:11Z</time>
      </trkpt>
      <trkpt lat="49.33222" lon="-1.25303">
        <ele>2</ele>
        <time>2023-07-26T10:06:43Z</time>
      </trkpt>
      <trkpt lat="49.33241" lon="-1.253">
        <ele>2</ele>
        <time>2023-07-26T10:06:59Z</time>
      </trkpt>
      <trkpt lat="49.33245" lon="-1.25303">
        <ele>2</ele>
        <time>2023-07-26T10:07:03Z</time>
      </trkpt>
      <trkpt lat="49.33247" lon="-1.25309">
        <ele>3</ele>
        <time>2023-07-26T10:07:07Z</time>
      </trkpt>
      <trkpt lat="49.33247" lon="-1.25316">
        <ele>3</ele>
        <time>2023-07-26T10:07:11Z</time>
      </trkpt>
      <trkpt lat="49.33236" lon="-1.25349">
        <ele>3</ele>
        <time>2023-07-26T10:07:33Z</time>
      </trkpt>
      <trkpt lat="49.33229" lon="-1.25391">
        <ele>3</ele>
        <time>2023-07-26T10:07:57Z</time>
      </trkpt>
      <trkpt lat="49.33226" lon="-1.25397">
        <ele>3</ele>
        <time>2023-07-26T10:08:01Z</time>
      </trkpt>
      <trkpt lat="49.33225" lon="-1.25404">
        <ele>3</ele>
        <time>2023-07-26T10:08:05Z</time>
      </trkpt>
      <trkpt lat="49.33225" lon="-1.25411">
        <ele>3</ele>
        <time>2023-07-26T10:08:09Z</time>
      </trkpt>
      <trkpt lat="49.33228" lon="-1.25418">
        <ele>3</ele>
        <time>2023-07-26T10:08:13Z</time>
      </trkpt>
      <trkpt lat="49.33253" lon="-1.2546">
        <ele>3</ele>
        <time>2023-07-26T10:08:45Z</time>
      </trkpt>
      <trkpt lat="49.33258" lon="-1.25473">
        <ele>3</ele>
        <time>2023-07-26T10:08:53Z</time>
      </trkpt>
      <trkpt lat="49.33261" lon="-1.25479">
        <ele>3</ele>
        <time>2023-07-26T10:08:57Z</time>
      </trkpt>
      <trkpt lat="49.33271" lon="-1.25519">
        <ele>3</ele>
        <time>2023-07-26T10:09:22Z</time>
      </trkpt>
      <trkpt lat="49.333" lon="-1.25558">
        <ele>4</ele>
        <time>2023-07-26T10:09:55Z</time>
      </trkpt>
      <trkpt lat="49.3331" lon="-1.25554">
        <ele>3</ele>
        <time>2023-07-26T10:13:57Z</time>
      </trkpt>
      <trkpt lat="49.33307" lon="-1.25562">
        <ele>4</ele>
        <time>2023-07-26T10:14:52Z</time>
      </trkpt>
      <trkpt lat="49.33313" lon="-1.25573">
        <ele>4</ele>
        <time>2023-07-26T10:15:02Z</time>
      </trkpt>
      <trkpt lat="49.33318" lon="-1.25578">
        <ele>4</ele>
        <time>2023-07-26T10:15:10Z</time>
      </trkpt>
      <trkpt lat="49.33322" lon="-1.2558">
        <ele>5</ele>
        <time>2023-07-26T10:16:02Z</time>
      </trkpt>
      <trkpt lat="49.33323" lon="-1.25587">
        <ele>5</ele>
        <time>2023-07-26T10:16:28Z</time>
      </trkpt>
      <trkpt lat="49.33333" lon="-1.25603">
        <ele>6</ele>
        <time>2023-07-26T10:16:43Z</time>
      </trkpt>
      <trkpt lat="49.33337" lon="-1.25607">
        <ele>6</ele>
        <time>2023-07-26T10:16:50Z</time>
      </trkpt>
      <trkpt lat="49.33341" lon="-1.25608">
        <ele>6</ele>
        <time>2023-07-26T10:16:54Z</time>
      </trkpt>
      <trkpt lat="49.33345" lon="-1.25604">
        <ele>7</ele>
        <time>2023-07-26T10:16:57Z</time>
      </trkpt>
      <trkpt lat="49.33366" lon="-1.25554">
        <ele>7</ele>
        <time>2023-07-26T10:17:29Z</time>
      </trkpt>
      <trkpt lat="49.33379" lon="-1.25523">
        <ele>6</ele>
        <time>2023-07-26T10:17:49Z</time>
      </trkpt>
      <trkpt lat="49.33379" lon="-1.25517">
        <ele>7</ele>
        <time>2023-07-26T10:18:04Z</time>
      </trkpt>
      <trkpt lat="49.33385" lon="-1.25514">
        <ele>7</ele>
        <time>2023-07-26T10:18:41Z</time>
      </trkpt>
      <trkpt lat="49.33392" lon="-1.25499">
        <ele>6</ele>
        <time>2023-07-26T10:18:54Z</time>
      </trkpt>
      <trkpt lat="49.33391" lon="-1.25493">
        <ele>6</ele>
        <time>2023-07-26T10:19:14Z</time>
      </trkpt>
      <trkpt lat="49.334" lon="-1.25481">
        <ele>6</ele>
        <time>2023-07-26T10:19:27Z</time>
      </trkpt>
      <trkpt lat="49.33405" lon="-1.2547">
        <ele>5</ele>
        <time>2023-07-26T10:19:35Z</time>
      </trkpt>
      <trkpt lat="49.33412" lon="-1.25456">
        <ele>5</ele>
        <time>2023-07-26T10:19:57Z</time>
      </trkpt>
      <trkpt lat="49.33414" lon="-1.2545">
        <ele>5</ele>
        <time>2023-07-26T10:20:01Z</time>
      </trkpt>
      <trkpt lat="49.33416" lon="-1.25443">
        <ele>5</ele>
        <time>2023-07-26T10:20:11Z</time>
      </trkpt>
      <trkpt lat="49.33429" lon="-1.25423">
        <ele>4</ele>
        <time>2023-07-26T10:20:27Z</time>
      </trkpt>
      <trkpt lat="49.33433" lon="-1.25419">
        <ele>4</ele>
        <time>2023-07-26T10:20:31Z</time>
      </trkpt>
      <trkpt lat="49.33434" lon="-1.25413">
        <ele>4</ele>
        <time>2023-07-26T10:20:35Z</time>
      </trkpt>
      <trkpt lat="49.33456" lon="-1.25411">
        <ele>4</ele>
        <time>2023-07-26T10:21:08Z</time>
      </trkpt>
      <trkpt lat="49.33462" lon="-1.25411">
        <ele>4</ele>
        <time>2023-07-26T10:21:12Z</time>
      </trkpt>
      <trkpt lat="49.33491" lon="-1.25398">
        <ele>5</ele>
        <time>2023-07-26T10:21:36Z</time>
      </trkpt>
      <trkpt lat="49.33501" lon="-1.2539">
        <ele>5</ele>
        <time>2023-07-26T10:21:44Z</time>
      </trkpt>
      <trkpt lat="49.33518" lon="-1.25362">
        <ele>5</ele>
        <time>2023-07-26T10:22:11Z</time>
      </trkpt>
      <trkpt lat="49.33522" lon="-1.25355">
        <ele>5</ele>
        <time>2023-07-26T10:22:29Z</time>
      </trkpt>
      <trkpt lat="49.33537" lon="-1.25335">
        <ele>5</ele>
        <time>2023-07-26T10:22:44Z</time>
      </trkpt>
      <trkpt lat="49.33562" lon="-1.25289">
        <ele>5</ele>
        <time>2023-07-26T10:23:16Z</time>
      </trkpt>
      <trkpt lat="49.33564" lon="-1.25281">
        <ele>4</ele>
        <time>2023-07-26T10:23:20Z</time>
      </trkpt>
      <trkpt lat="49.33564" lon="-1.25266">
        <ele>4</ele>
        <time>2023-07-26T10:23:28Z</time>
      </trkpt>
      <trkpt lat="49.33563" lon="-1.25258">
        <ele>4</ele>
        <time>2023-07-26T10:23:32Z</time>
      </trkpt>
      <trkpt lat="49.33565" lon="-1.25244">
        <ele>4</ele>
        <time>2023-07-26T10:23:40Z</time>
      </trkpt>
      <trkpt lat="49.33567" lon="-1.25237">
        <ele>4</ele>
        <time>2023-07-26T10:23:44Z</time>
      </trkpt>
      <trkpt lat="49.33571" lon="-1.25232">
        <ele>4</ele>
        <time>2023-07-26T10:23:48Z</time>
      </trkpt>
      <trkpt lat="49.33589" lon="-1.25222">
        <ele>4</ele>
        <time>2023-07-26T10:24:06Z</time>
      </trkpt>
      <trkpt lat="49.33608" lon="-1.25216">
        <ele>4</ele>
        <time>2023-07-26T10:24:22Z</time>
      </trkpt>
      <trkpt lat="49.33622" lon="-1.25216">
        <ele>4</ele>
        <time>2023-07-26T10:24:35Z</time>
      </trkpt>
      <trkpt lat="49.33641" lon="-1.25222">
        <ele>3</ele>
        <time>2023-07-26T10:24:52Z</time>
      </trkpt>
      <trkpt lat="49.33648" lon="-1.25232">
        <ele>3</ele>
        <time>2023-07-26T10:25:01Z</time>
      </trkpt>
      <trkpt lat="49.33652" lon="-1.25236">
        <ele>3</ele>
        <time>2023-07-26T10:25:05Z</time>
      </trkpt>
      <trkpt lat="49.33656" lon="-1.2524">
        <ele>3</ele>
        <time>2023-07-26T10:25:10Z</time>
      </trkpt>
      <trkpt lat="49.33678" lon="-1.25269">
        <ele>4</ele>
        <time>2023-07-26T10:25:35Z</time>
      </trkpt>
      <trkpt lat="49.33707" lon="-1.25301">
        <ele>5</ele>
        <time>2023-07-26T10:26:07Z</time>
      </trkpt>
      <trkpt lat="49.33725" lon="-1.25318">
        <ele>6</ele>
        <time>2023-07-26T10:26:37Z</time>
      </trkpt>
      <trkpt lat="49.3373" lon="-1.2532">
        <ele>6</ele>
        <time>2023-07-26T10:26:41Z</time>
      </trkpt>
      <trkpt lat="49.33738" lon="-1.25329">
        <ele>6</ele>
        <time>2023-07-26T10:26:49Z</time>
      </trkpt>
      <trkpt lat="49.33743" lon="-1.2533">
        <ele>6</ele>
        <time>2023-07-26T10:26:53Z</time>
      </trkpt>
      <trkpt lat="49.33746" lon="-1.25328">
        <ele>6</ele>
        <time>2023-07-26T10:27:07Z</time>
      </trkpt>
      <trkpt lat="49.33753" lon="-1.25338">
        <ele>7</ele>
        <time>2023-07-26T10:28:02Z</time>
      </trkpt>
      <trkpt lat="49.3376" lon="-1.25356">
        <ele>7</ele>
        <time>2023-07-26T10:28:16Z</time>
      </trkpt>
      <trkpt lat="49.33763" lon="-1.25412">
        <ele>9</ele>
        <time>2023-07-26T10:28:50Z</time>
      </trkpt>
      <trkpt lat="49.33766" lon="-1.25469">
        <ele>12</ele>
        <time>2023-07-26T10:29:23Z</time>
      </trkpt>
      <trkpt lat="49.33768" lon="-1.25512">
        <ele>14</ele>
        <time>2023-07-26T10:29:49Z</time>
      </trkpt>
      <trkpt lat="49.3377" lon="-1.25517">
        <ele>14</ele>
        <time>2023-07-26T10:29:53Z</time>
      </trkpt>
      <trkpt lat="49.3378" lon="-1.25516">
        <ele>14</ele>
        <time>2023-07-26T10:30:22Z</time>
      </trkpt>
      <trkpt lat="49.33814" lon="-1.25501">
        <ele>14</ele>
        <time>2023-07-26T10:30:55Z</time>
      </trkpt>
      <trkpt lat="49.33848" lon="-1.25475">
        <ele>12</ele>
        <time>2023-07-26T10:31:28Z</time>
      </trkpt>
      <trkpt lat="49.33857" lon="-1.25469">
        <ele>12</ele>
        <time>2023-07-26T10:31:36Z</time>
      </trkpt>
      <trkpt lat="49.33861" lon="-1.25467">
        <ele>12</ele>
        <time>2023-07-26T10:31:40Z</time>
      </trkpt>
      <trkpt lat="49.33867" lon="-1.25467">
        <ele>12</ele>
        <time>2023-07-26T10:31:45Z</time>
      </trkpt>
      <trkpt lat="49.3387" lon="-1.25471">
        <ele>12</ele>
        <time>2023-07-26T10:31:49Z</time>
      </trkpt>
      <trkpt lat="49.33873" lon="-1.25477">
        <ele>12</ele>
        <time>2023-07-26T10:31:53Z</time>
      </trkpt>
      <trkpt lat="49.33875" lon="-1.25483">
        <ele>12</ele>
        <time>2023-07-26T10:31:57Z</time>
      </trkpt>
      <trkpt lat="49.33878" lon="-1.2549">
        <ele>12</ele>
        <time>2023-07-26T10:32:02Z</time>
      </trkpt>
      <trkpt lat="49.33884" lon="-1.2551">
        <ele>12</ele>
        <time>2023-07-26T10:32:15Z</time>
      </trkpt>
      <trkpt lat="49.33886" lon="-1.25517">
        <ele>12</ele>
        <time>2023-07-26T10:32:20Z</time>
      </trkpt>
      <trkpt lat="49.33887" lon="-1.25524">
        <ele>12</ele>
        <time>2023-07-26T10:32:24Z</time>
      </trkpt>
      <trkpt lat="49.33889" lon="-1.25531">
        <ele>12</ele>
        <time>2023-07-26T10:32:28Z</time>
      </trkpt>
      <trkpt lat="49.33891" lon="-1.25537">
        <ele>12</ele>
        <time>2023-07-26T10:32:32Z</time>
      </trkpt>
      <trkpt lat="49.33915" lon="-1.25582">
        <ele>13</ele>
        <time>2023-07-26T10:33:04Z</time>
      </trkpt>
      <trkpt lat="49.33939" lon="-1.25623">
        <ele>13</ele>
        <time>2023-07-26T10:33:36Z</time>
      </trkpt>
      <trkpt lat="49.33963" lon="-1.25664">
        <ele>13</ele>
        <time>2023-07-26T10:34:13Z</time>
      </trkpt>
      <trkpt lat="49.33991" lon="-1.25703">
        <ele>12</ele>
        <time>2023-07-26T10:34:45Z</time>
      </trkpt>
      <trkpt lat="49.34022" lon="-1.25743">
        <ele>11</ele>
        <time>2023-07-26T10:35:21Z</time>
      </trkpt>
      <trkpt lat="49.3404" lon="-1.25753">
        <ele>11</ele>
        <time>2023-07-26T10:35:37Z</time>
      </trkpt>
      <trkpt lat="49.34059" lon="-1.25761">
        <ele>10</ele>
        <time>2023-07-26T10:35:53Z</time>
      </trkpt>
      <trkpt lat="49.34067" lon="-1.25768">
        <ele>10</ele>
        <time>2023-07-26T10:36:01Z</time>
      </trkpt>
      <trkpt lat="49.34078" lon="-1.25781">
        <ele>9</ele>
        <time>2023-07-26T10:36:13Z</time>
      </trkpt>
      <trkpt lat="49.34082" lon="-1.25783">
        <ele>9</ele>
        <time>2023-07-26T10:36:22Z</time>
      </trkpt>
      <trkpt lat="49.34086" lon="-1.25789">
        <ele>9</ele>
        <time>2023-07-26T10:36:27Z</time>
      </trkpt>
      <trkpt lat="49.34085" lon="-1.25795">
        <ele>9</ele>
        <time>2023-07-26T10:37:00Z</time>
      </trkpt>
      <trkpt lat="49.34185" lon="-1.25926">
        <ele>17</ele>
        <time>2023-07-26T10:42:34Z</time>
      </trkpt>
      <trkpt lat="49.34185" lon="-1.25926">
        <ele>17</ele>
        <time>2023-07-26T10:42:37Z</time>
      </trkpt>
      <trkpt lat="49.3417" lon="-1.25978">
        <ele>13</ele>
        <time>2023-07-26T10:42:40Z</time>
      </trkpt>
      <trkpt lat="49.34169" lon="-1.25979">
        <ele>13</ele>
        <time>2023-07-26T10:42:41Z</time>
      </trkpt>
      <trkpt lat="49.34177" lon="-1.25978">
        <ele>14</ele>
        <time>2023-07-26T10:42:50Z</time>
      </trkpt>
      <trkpt lat="49.34182" lon="-1.25976">
        <ele>14</ele>
        <time>2023-07-26T10:42:55Z</time>
      </trkpt>
      <trkpt lat="49.34185" lon="-1.25972">
        <ele>14</ele>
        <time>2023-07-26T10:42:58Z</time>
      </trkpt>
      <trkpt lat="49.34218" lon="-1.25951">
        <ele>15</ele>
        <time>2023-07-26T10:43:29Z</time>
      </trkpt>
      <trkpt lat="49.34249" lon="-1.25933">
        <ele>16</ele>
        <time>2023-07-26T10:44:02Z</time>
      </trkpt>
      <trkpt lat="49.3427" lon="-1.25915">
        <ele>17</ele>
        <time>2023-07-26T10:44:22Z</time>
      </trkpt>
      <trkpt lat="49.34274" lon="-1.2591">
        <ele>17</ele>
        <time>2023-07-26T10:44:26Z</time>
      </trkpt>
      <trkpt lat="49.34305" lon="-1.25876">
        <ele>16</ele>
        <time>2023-07-26T10:44:58Z</time>
      </trkpt>
      <trkpt lat="49.34334" lon="-1.25837">
        <ele>15</ele>
        <time>2023-07-26T10:45:30Z</time>
      </trkpt>
      <trkpt lat="49.34337" lon="-1.25831">
        <ele>15</ele>
        <time>2023-07-26T10:45:34Z</time>
      </trkpt>
      <trkpt lat="49.34341" lon="-1.2582">
        <ele>15</ele>
        <time>2023-07-26T10:45:42Z</time>
      </trkpt>
      <trkpt lat="49.34341" lon="-1.25808">
        <ele>15</ele>
        <time>2023-07-26T10:45:54Z</time>
      </trkpt>
      <trkpt lat="49.34341" lon="-1.25801">
        <ele>14</ele>
        <time>2023-07-26T10:45:58Z</time>
      </trkpt>
      <trkpt lat="49.34343" lon="-1.25795">
        <ele>14</ele>
        <time>2023-07-26T10:46:02Z</time>
      </trkpt>
      <trkpt lat="49.34347" lon="-1.2579">
        <ele>14</ele>
        <time>2023-07-26T10:46:06Z</time>
      </trkpt>
      <trkpt lat="49.3438" lon="-1.2576">
        <ele>13</ele>
        <time>2023-07-26T10:46:39Z</time>
      </trkpt>
      <trkpt lat="49.34384" lon="-1.25755">
        <ele>13</ele>
        <time>2023-07-26T10:46:55Z</time>
      </trkpt>
      <trkpt lat="49.34387" lon="-1.25749">
        <ele>13</ele>
        <time>2023-07-26T10:47:13Z</time>
      </trkpt>
      <trkpt lat="49.34413" lon="-1.25731">
        <ele>12</ele>
        <time>2023-07-26T10:47:37Z</time>
      </trkpt>
      <trkpt lat="49.34446" lon="-1.25697">
        <ele>12</ele>
        <time>2023-07-26T10:48:09Z</time>
      </trkpt>
      <trkpt lat="49.34453" lon="-1.25687">
        <ele>12</ele>
        <time>2023-07-26T10:48:17Z</time>
      </trkpt>
      <trkpt lat="49.34457" lon="-1.25682">
        <ele>12</ele>
        <time>2023-07-26T10:48:22Z</time>
      </trkpt>
      <trkpt lat="49.34482" lon="-1.25641">
        <ele>11</ele>
        <time>2023-07-26T10:48:53Z</time>
      </trkpt>
      <trkpt lat="49.34486" lon="-1.25636">
        <ele>11</ele>
        <time>2023-07-26T10:48:57Z</time>
      </trkpt>
      <trkpt lat="49.34501" lon="-1.25591">
        <ele>11</ele>
        <time>2023-07-26T10:49:26Z</time>
      </trkpt>
      <trkpt lat="49.34502" lon="-1.25585">
        <ele>11</ele>
        <time>2023-07-26T10:49:30Z</time>
      </trkpt>
      <trkpt lat="49.34506" lon="-1.25572">
        <ele>11</ele>
        <time>2023-07-26T10:49:38Z</time>
      </trkpt>
      <trkpt lat="49.34512" lon="-1.25562">
        <ele>11</ele>
        <time>2023-07-26T10:49:47Z</time>
      </trkpt>
      <trkpt lat="49.3452" lon="-1.25555">
        <ele>11</ele>
        <time>2023-07-26T10:49:56Z</time>
      </trkpt>
      <trkpt lat="49.34534" lon="-1.25548">
        <ele>11</ele>
        <time>2023-07-26T10:50:08Z</time>
      </trkpt>
      <trkpt lat="49.3457" lon="-1.25539">
        <ele>11</ele>
        <time>2023-07-26T10:50:41Z</time>
      </trkpt>
      <trkpt lat="49.3459" lon="-1.25536">
        <ele>11</ele>
        <time>2023-07-26T10:50:59Z</time>
      </trkpt>
      <trkpt lat="49.34627" lon="-1.25543">
        <ele>11</ele>
        <time>2023-07-26T10:51:32Z</time>
      </trkpt>
      <trkpt lat="49.34641" lon="-1.25542">
        <ele>11</ele>
        <time>2023-07-26T10:51:44Z</time>
      </trkpt>
      <trkpt lat="49.34645" lon="-1.25539">
        <ele>11</ele>
        <time>2023-07-26T10:51:48Z</time>
      </trkpt>
      <trkpt lat="49.34651" lon="-1.25533">
        <ele>10</ele>
        <time>2023-07-26T10:52:13Z</time>
      </trkpt>
      <trkpt lat="49.34663" lon="-1.25512">
        <ele>10</ele>
        <time>2023-07-26T10:52:29Z</time>
      </trkpt>
      <trkpt lat="49.34689" lon="-1.25489">
        <ele>10</ele>
        <time>2023-07-26T10:53:00Z</time>
      </trkpt>
      <trkpt lat="49.34724" lon="-1.2547">
        <ele>9</ele>
        <time>2023-07-26T10:53:33Z</time>
      </trkpt>
      <trkpt lat="49.34727" lon="-1.25466">
        <ele>9</ele>
        <time>2023-07-26T10:53:37Z</time>
      </trkpt>
      <trkpt lat="49.34745" lon="-1.25457">
        <ele>9</ele>
        <time>2023-07-26T10:53:52Z</time>
      </trkpt>
      <trkpt lat="49.34749" lon="-1.25451">
        <ele>9</ele>
        <time>2023-07-26T10:53:58Z</time>
      </trkpt>
      <trkpt lat="49.34765" lon="-1.25434">
        <ele>9</ele>
        <time>2023-07-26T10:54:13Z</time>
      </trkpt>
      <trkpt lat="49.34758" lon="-1.25424">
        <ele>9</ele>
        <time>2023-07-26T10:54:51Z</time>
      </trkpt>
      <trkpt lat="49.34759" lon="-1.25431">
        <ele>9</ele>
        <time>2023-07-26T10:54:58Z</time>
      </trkpt>
      <trkpt lat="49.34768" lon="-1.25431">
        <ele>9</ele>
        <time>2023-07-26T10:55:39Z</time>
      </trkpt>
      <trkpt lat="49.348" lon="-1.254">
        <ele>9</ele>
        <time>2023-07-26T10:56:11Z</time>
      </trkpt>
      <trkpt lat="49.34833" lon="-1.25374">
        <ele>9</ele>
        <time>2023-07-26T10:56:54Z</time>
      </trkpt>
      <trkpt lat="49.34856" lon="-1.25361">
        <ele>9</ele>
        <time>2023-07-26T10:57:17Z</time>
      </trkpt>
      <trkpt lat="49.34868" lon="-1.25351">
        <ele>9</ele>
        <time>2023-07-26T10:57:29Z</time>
      </trkpt>
      <trkpt lat="49.34871" lon="-1.25346">
        <ele>9</ele>
        <time>2023-07-26T10:57:33Z</time>
      </trkpt>
      <trkpt lat="49.34874" lon="-1.2534">
        <ele>9</ele>
        <time>2023-07-26T10:57:38Z</time>
      </trkpt>
      <trkpt lat="49.34874" lon="-1.25333">
        <ele>9</ele>
        <time>2023-07-26T10:57:55Z</time>
      </trkpt>
      <trkpt lat="49.3488" lon="-1.2533">
        <ele>9</ele>
        <time>2023-07-26T10:59:46Z</time>
      </trkpt>
      <trkpt lat="49.34885" lon="-1.2533">
        <ele>9</ele>
        <time>2023-07-26T10:59:51Z</time>
      </trkpt>
      <trkpt lat="49.34887" lon="-1.25321">
        <ele>9</ele>
        <time>2023-07-26T11:00:16Z</time>
      </trkpt>
      <trkpt lat="49.34889" lon="-1.25318">
        <ele>8</ele>
        <time>2023-07-26T11:01:02Z</time>
      </trkpt>
      <trkpt lat="49.34888" lon="-1.2532">
        <ele>9</ele>
        <time>2023-07-26T11:13:22Z</time>
      </trkpt>
      <trkpt lat="49.34891" lon="-1.25328">
        <ele>10</ele>
        <time>2023-07-26T11:24:59Z</time>
      </trkpt>
      <trkpt lat="49.34896" lon="-1.25332">
        <ele>9</ele>
        <time>2023-07-26T11:25:17Z</time>
      </trkpt>
      <trkpt lat="49.34899" lon="-1.25338">
        <ele>10</ele>
        <time>2023-07-26T11:25:22Z</time>
      </trkpt>
      <trkpt lat="49.34903" lon="-1.25342">
        <ele>10</ele>
        <time>2023-07-26T11:25:26Z</time>
      </trkpt>
      <trkpt lat="49.34907" lon="-1.25342">
        <ele>10</ele>
        <time>2023-07-26T11:25:30Z</time>
      </trkpt>
      <trkpt lat="49.34912" lon="-1.25341">
        <ele>10</ele>
        <time>2023-07-26T11:26:07Z</time>
      </trkpt>
      <trkpt lat="49.34918" lon="-1.25343">
        <ele>10</ele>
        <time>2023-07-26T11:26:53Z</time>
      </trkpt>
      <trkpt lat="49.34922" lon="-1.25344">
        <ele>9</ele>
        <time>2023-07-26T11:26:58Z</time>
      </trkpt>
      <trkpt lat="49.34926" lon="-1.25334">
        <ele>10</ele>
        <time>2023-07-26T11:27:07Z</time>
      </trkpt>
      <trkpt lat="49.34921" lon="-1.25332">
        <ele>10</ele>
        <time>2023-07-26T11:27:36Z</time>
      </trkpt>
      <trkpt lat="49.34925" lon="-1.25342">
        <ele>9</ele>
        <time>2023-07-26T11:27:51Z</time>
      </trkpt>
      <trkpt lat="49.34927" lon="-1.25348">
        <ele>9</ele>
        <time>2023-07-26T11:27:56Z</time>
      </trkpt>
      <trkpt lat="49.34933" lon="-1.25352">
        <ele>9</ele>
        <time>2023-07-26T11:28:12Z</time>
      </trkpt>
      <trkpt lat="49.34934" lon="-1.25336">
        <ele>10</ele>
        <time>2023-07-26T11:28:54Z</time>
      </trkpt>
      <trkpt lat="49.34932" lon="-1.25327">
        <ele>10</ele>
        <time>2023-07-26T11:29:49Z</time>
      </trkpt>
      <trkpt lat="49.34929" lon="-1.25344">
        <ele>10</ele>
        <time>2023-07-26T11:32:05Z</time>
      </trkpt>
      <trkpt lat="49.34927" lon="-1.25345">
        <ele>10</ele>
        <time>2023-07-26T11:33:25Z</time>
      </trkpt>
      <trkpt lat="49.34929" lon="-1.25352">
        <ele>9</ele>
        <time>2023-07-26T11:33:51Z</time>
      </trkpt>
      <trkpt lat="49.34928" lon="-1.25346">
        <ele>10</ele>
        <time>2023-07-26T11:34:11Z</time>
      </trkpt>
      <trkpt lat="49.34925" lon="-1.25341">
        <ele>10</ele>
        <time>2023-07-26T11:34:15Z</time>
      </trkpt>
      <trkpt lat="49.34912" lon="-1.25339">
        <ele>9</ele>
        <time>2023-07-26T11:34:55Z</time>
      </trkpt>
      <trkpt lat="49.34911" lon="-1.2534">
        <ele>9</ele>
        <time>2023-07-26T11:36:53Z</time>
      </trkpt>
      <trkpt lat="49.3491" lon="-1.2534">
        <ele>8</ele>
        <time>2023-07-26T11:37:42Z</time>
      </trkpt>
      <trkpt lat="49.34902" lon="-1.25343">
        <ele>9</ele>
        <time>2023-07-26T11:38:18Z</time>
      </trkpt>
      <trkpt lat="49.34884" lon="-1.25353">
        <ele>8</ele>
        <time>2023-07-26T11:38:36Z</time>
      </trkpt>
      <trkpt lat="49.3485" lon="-1.25367">
        <ele>8</ele>
        <time>2023-07-26T11:39:08Z</time>
      </trkpt>
      <trkpt lat="49.34816" lon="-1.25387">
        <ele>7</ele>
        <time>2023-07-26T11:39:39Z</time>
      </trkpt>
      <trkpt lat="49.34794" lon="-1.25402">
        <ele>8</ele>
        <time>2023-07-26T11:39:59Z</time>
      </trkpt>
      <trkpt lat="49.34761" lon="-1.25435">
        <ele>8</ele>
        <time>2023-07-26T11:40:32Z</time>
      </trkpt>
      <trkpt lat="49.34727" lon="-1.25467">
        <ele>9</ele>
        <time>2023-07-26T11:41:06Z</time>
      </trkpt>
      <trkpt lat="49.34719" lon="-1.25471">
        <ele>9</ele>
        <time>2023-07-26T11:41:43Z</time>
      </trkpt>
      <trkpt lat="49.34684" lon="-1.25489">
        <ele>9</ele>
        <time>2023-07-26T11:42:14Z</time>
      </trkpt>
      <trkpt lat="49.34676" lon="-1.25495">
        <ele>10</ele>
        <time>2023-07-26T11:42:22Z</time>
      </trkpt>
      <trkpt lat="49.34664" lon="-1.25507">
        <ele>10</ele>
        <time>2023-07-26T11:42:34Z</time>
      </trkpt>
      <trkpt lat="49.34657" lon="-1.25517">
        <ele>9</ele>
        <time>2023-07-26T11:42:42Z</time>
      </trkpt>
      <trkpt lat="49.3465" lon="-1.25536">
        <ele>9</ele>
        <time>2023-07-26T11:42:54Z</time>
      </trkpt>
      <trkpt lat="49.34649" lon="-1.25551">
        <ele>10</ele>
        <time>2023-07-26T11:43:02Z</time>
      </trkpt>
      <trkpt lat="49.3465" lon="-1.25566">
        <ele>10</ele>
        <time>2023-07-26T11:43:10Z</time>
      </trkpt>
      <trkpt lat="49.34662" lon="-1.25619">
        <ele>12</ele>
        <time>2023-07-26T11:43:42Z</time>
      </trkpt>
      <trkpt lat="49.34664" lon="-1.25626">
        <ele>12</ele>
        <time>2023-07-26T11:43:46Z</time>
      </trkpt>
      <trkpt lat="49.34675" lon="-1.25679">
        <ele>14</ele>
        <time>2023-07-26T11:44:18Z</time>
      </trkpt>
      <trkpt lat="49.34683" lon="-1.25727">
        <ele>15</ele>
        <time>2023-07-26T11:44:48Z</time>
      </trkpt>
      <trkpt lat="49.34688" lon="-1.25747">
        <ele>16</ele>
        <time>2023-07-26T11:45:01Z</time>
      </trkpt>
      <trkpt lat="49.34699" lon="-1.258">
        <ele>18</ele>
        <time>2023-07-26T11:45:34Z</time>
      </trkpt>
      <trkpt lat="49.34707" lon="-1.25841">
        <ele>19</ele>
        <time>2023-07-26T11:46:25Z</time>
      </trkpt>
      <trkpt lat="49.34712" lon="-1.25862">
        <ele>20</ele>
        <time>2023-07-26T11:46:39Z</time>
      </trkpt>
      <trkpt lat="49.34714" lon="-1.25869">
        <ele>20</ele>
        <time>2023-07-26T11:46:43Z</time>
      </trkpt>
      <trkpt lat="49.34715" lon="-1.25875">
        <ele>20</ele>
        <time>2023-07-26T11:46:47Z</time>
      </trkpt>
      <trkpt lat="49.34719" lon="-1.25889">
        <ele>20</ele>
        <time>2023-07-26T11:46:56Z</time>
      </trkpt>
      <trkpt lat="49.34715" lon="-1.25896">
        <ele>21</ele>
        <time>2023-07-26T11:47:06Z</time>
      </trkpt>
      <trkpt lat="49.3472" lon="-1.25898">
        <ele>20</ele>
        <time>2023-07-26T11:48:03Z</time>
      </trkpt>
      <trkpt lat="49.34724" lon="-1.25905">
        <ele>21</ele>
        <time>2023-07-26T11:49:16Z</time>
      </trkpt>
      <trkpt lat="49.34724" lon="-1.25913">
        <ele>21</ele>
        <time>2023-07-26T11:49:30Z</time>
      </trkpt>
      <trkpt lat="49.34731" lon="-1.25971">
        <ele>23</ele>
        <time>2023-07-26T11:50:05Z</time>
      </trkpt>
      <trkpt lat="49.34739" lon="-1.26017">
        <ele>25</ele>
        <time>2023-07-26T11:50:34Z</time>
      </trkpt>
      <trkpt lat="49.34743" lon="-1.26053">
        <ele>27</ele>
        <time>2023-07-26T11:50:55Z</time>
      </trkpt>
      <trkpt lat="49.34747" lon="-1.26076">
        <ele>28</ele>
        <time>2023-07-26T11:51:09Z</time>
      </trkpt>
      <trkpt lat="49.34762" lon="-1.2612">
        <ele>29</ele>
        <time>2023-07-26T11:51:39Z</time>
      </trkpt>
      <trkpt lat="49.34764" lon="-1.26126">
        <ele>29</ele>
        <time>2023-07-26T11:51:43Z</time>
      </trkpt>
      <trkpt lat="49.34769" lon="-1.26135">
        <ele>29</ele>
        <time>2023-07-26T11:52:07Z</time>
      </trkpt>
      <trkpt lat="49.34787" lon="-1.26185">
        <ele>31</ele>
        <time>2023-07-26T11:52:39Z</time>
      </trkpt>
      <trkpt lat="49.3479" lon="-1.2619">
        <ele>31</ele>
        <time>2023-07-26T11:52:43Z</time>
      </trkpt>
      <trkpt lat="49.34794" lon="-1.26202">
        <ele>31</ele>
        <time>2023-07-26T11:52:51Z</time>
      </trkpt>
      <trkpt lat="49.34796" lon="-1.26209">
        <ele>31</ele>
        <time>2023-07-26T11:52:55Z</time>
      </trkpt>
      <trkpt lat="49.34797" lon="-1.26215">
        <ele>31</ele>
        <time>2023-07-26T11:52:59Z</time>
      </trkpt>
      <trkpt lat="49.348" lon="-1.26222">
        <ele>32</ele>
        <time>2023-07-26T11:53:11Z</time>
      </trkpt>
      <trkpt lat="49.34802" lon="-1.26228">
        <ele>32</ele>
        <time>2023-07-26T11:53:15Z</time>
      </trkpt>
      <trkpt lat="49.34823" lon="-1.26277">
        <ele>30</ele>
        <time>2023-07-26T11:53:47Z</time>
      </trkpt>
      <trkpt lat="49.34828" lon="-1.26289">
        <ele>31</ele>
        <time>2023-07-26T11:53:55Z</time>
      </trkpt>
      <trkpt lat="49.34848" lon="-1.2633">
        <ele>30</ele>
        <time>2023-07-26T11:54:23Z</time>
      </trkpt>
      <trkpt lat="49.34876" lon="-1.2637">
        <ele>29</ele>
        <time>2023-07-26T11:54:55Z</time>
      </trkpt>
      <trkpt lat="49.349" lon="-1.26396">
        <ele>27</ele>
        <time>2023-07-26T11:55:19Z</time>
      </trkpt>
      <trkpt lat="49.349" lon="-1.26402">
        <ele>27</ele>
        <time>2023-07-26T11:55:23Z</time>
      </trkpt>
      <trkpt lat="49.34897" lon="-1.26408">
        <ele>27</ele>
        <time>2023-07-26T11:55:28Z</time>
      </trkpt>
      <trkpt lat="49.34888" lon="-1.26412">
        <ele>27</ele>
        <time>2023-07-26T11:55:36Z</time>
      </trkpt>
      <trkpt lat="49.34875" lon="-1.26422">
        <ele>28</ele>
        <time>2023-07-26T11:55:50Z</time>
      </trkpt>
      <trkpt lat="49.34841" lon="-1.26442">
        <ele>29</ele>
        <time>2023-07-26T11:56:22Z</time>
      </trkpt>
      <trkpt lat="49.34811" lon="-1.26458">
        <ele>29</ele>
        <time>2023-07-26T11:56:50Z</time>
      </trkpt>
      <trkpt lat="49.34806" lon="-1.2646">
        <ele>29</ele>
        <time>2023-07-26T11:56:54Z</time>
      </trkpt>
      <trkpt lat="49.34785" lon="-1.26472">
        <ele>29</ele>
        <time>2023-07-26T11:57:14Z</time>
      </trkpt>
      <trkpt lat="49.34781" lon="-1.26474">
        <ele>30</ele>
        <time>2023-07-26T11:57:18Z</time>
      </trkpt>
      <trkpt lat="49.34777" lon="-1.26477">
        <ele>30</ele>
        <time>2023-07-26T11:57:22Z</time>
      </trkpt>
      <trkpt lat="49.34772" lon="-1.26479">
        <ele>29</ele>
        <time>2023-07-26T11:57:26Z</time>
      </trkpt>
      <trkpt lat="49.34737" lon="-1.26496">
        <ele>30</ele>
        <time>2023-07-26T11:57:58Z</time>
      </trkpt>
      <trkpt lat="49.34719" lon="-1.26505">
        <ele>30</ele>
        <time>2023-07-26T11:58:14Z</time>
      </trkpt>
      <trkpt lat="49.34715" lon="-1.26508">
        <ele>30</ele>
        <time>2023-07-26T11:58:18Z</time>
      </trkpt>
      <trkpt lat="49.34698" lon="-1.26518">
        <ele>31</ele>
        <time>2023-07-26T11:58:34Z</time>
      </trkpt>
      <trkpt lat="49.34681" lon="-1.26529">
        <ele>30</ele>
        <time>2023-07-26T11:58:50Z</time>
      </trkpt>
      <trkpt lat="49.34648" lon="-1.26554">
        <ele>30</ele>
        <time>2023-07-26T11:59:22Z</time>
      </trkpt>
      <trkpt lat="49.34616" lon="-1.26583">
        <ele>30</ele>
        <time>2023-07-26T11:59:54Z</time>
      </trkpt>
      <trkpt lat="49.34609" lon="-1.26591">
        <ele>30</ele>
        <time>2023-07-26T12:00:02Z</time>
      </trkpt>
      <trkpt lat="49.346" lon="-1.26598">
        <ele>30</ele>
        <time>2023-07-26T12:00:10Z</time>
      </trkpt>
      <trkpt lat="49.34585" lon="-1.26615">
        <ele>30</ele>
        <time>2023-07-26T12:00:26Z</time>
      </trkpt>
      <trkpt lat="49.34561" lon="-1.26639">
        <ele>30</ele>
        <time>2023-07-26T12:00:51Z</time>
      </trkpt>
      <trkpt lat="49.34558" lon="-1.26644">
        <ele>30</ele>
        <time>2023-07-26T12:00:55Z</time>
      </trkpt>
      <trkpt lat="49.34535" lon="-1.26669">
        <ele>31</ele>
        <time>2023-07-26T12:01:21Z</time>
      </trkpt>
      <trkpt lat="49.34527" lon="-1.26678">
        <ele>30</ele>
        <time>2023-07-26T12:01:29Z</time>
      </trkpt>
      <trkpt lat="49.3451" lon="-1.26692">
        <ele>30</ele>
        <time>2023-07-26T12:01:45Z</time>
      </trkpt>
      <trkpt lat="49.34478" lon="-1.26715">
        <ele>30</ele>
        <time>2023-07-26T12:02:17Z</time>
      </trkpt>
      <trkpt lat="49.34445" lon="-1.2674">
        <ele>31</ele>
        <time>2023-07-26T12:02:49Z</time>
      </trkpt>
      <trkpt lat="49.34437" lon="-1.26745">
        <ele>31</ele>
        <time>2023-07-26T12:02:57Z</time>
      </trkpt>
      <trkpt lat="49.34433" lon="-1.26749">
        <ele>31</ele>
        <time>2023-07-26T12:03:11Z</time>
      </trkpt>
      <trkpt lat="49.34437" lon="-1.26755">
        <ele>31</ele>
        <time>2023-07-26T12:04:16Z</time>
      </trkpt>
      <trkpt lat="49.34447" lon="-1.26763">
        <ele>30</ele>
        <time>2023-07-26T12:04:26Z</time>
      </trkpt>
      <trkpt lat="49.34481" lon="-1.2679">
        <ele>29</ele>
        <time>2023-07-26T12:04:58Z</time>
      </trkpt>
      <trkpt lat="49.34506" lon="-1.26809">
        <ele>28</ele>
        <time>2023-07-26T12:05:22Z</time>
      </trkpt>
      <trkpt lat="49.34514" lon="-1.26819">
        <ele>27</ele>
        <time>2023-07-26T12:05:30Z</time>
      </trkpt>
      <trkpt lat="49.34519" lon="-1.26831">
        <ele>27</ele>
        <time>2023-07-26T12:05:38Z</time>
      </trkpt>
      <trkpt lat="49.34522" lon="-1.26844">
        <ele>27</ele>
        <time>2023-07-26T12:05:46Z</time>
      </trkpt>
      <trkpt lat="49.34525" lon="-1.26858">
        <ele>26</ele>
        <time>2023-07-26T12:05:54Z</time>
      </trkpt>
      <trkpt lat="49.34526" lon="-1.26865">
        <ele>26</ele>
        <time>2023-07-26T12:05:58Z</time>
      </trkpt>
      <trkpt lat="49.34527" lon="-1.2688">
        <ele>26</ele>
        <time>2023-07-26T12:06:06Z</time>
      </trkpt>
      <trkpt lat="49.34528" lon="-1.26887">
        <ele>26</ele>
        <time>2023-07-26T12:06:10Z</time>
      </trkpt>
      <trkpt lat="49.34529" lon="-1.26901">
        <ele>25</ele>
        <time>2023-07-26T12:06:18Z</time>
      </trkpt>
      <trkpt lat="49.3453" lon="-1.26916">
        <ele>25</ele>
        <time>2023-07-26T12:06:26Z</time>
      </trkpt>
      <trkpt lat="49.34536" lon="-1.26951">
        <ele>24</ele>
        <time>2023-07-26T12:06:46Z</time>
      </trkpt>
      <trkpt lat="49.34548" lon="-1.26999">
        <ele>23</ele>
        <time>2023-07-26T12:07:14Z</time>
      </trkpt>
      <trkpt lat="49.34554" lon="-1.27056">
        <ele>22</ele>
        <time>2023-07-26T12:07:46Z</time>
      </trkpt>
      <trkpt lat="49.34558" lon="-1.27113">
        <ele>21</ele>
        <time>2023-07-26T12:08:18Z</time>
      </trkpt>
      <trkpt lat="49.34561" lon="-1.27172">
        <ele>20</ele>
        <time>2023-07-26T12:08:51Z</time>
      </trkpt>
      <trkpt lat="49.34563" lon="-1.27215">
        <ele>19</ele>
        <time>2023-07-26T12:09:15Z</time>
      </trkpt>
      <trkpt lat="49.34564" lon="-1.27222">
        <ele>19</ele>
        <time>2023-07-26T12:09:19Z</time>
      </trkpt>
      <trkpt lat="49.34563" lon="-1.27229">
        <ele>19</ele>
        <time>2023-07-26T12:09:23Z</time>
      </trkpt>
      <trkpt lat="49.34567" lon="-1.27281">
        <ele>18</ele>
        <time>2023-07-26T12:09:52Z</time>
      </trkpt>
      <trkpt lat="49.34565" lon="-1.27288">
        <ele>18</ele>
        <time>2023-07-26T12:09:56Z</time>
      </trkpt>
      <trkpt lat="49.34561" lon="-1.27293">
        <ele>18</ele>
        <time>2023-07-26T12:10:01Z</time>
      </trkpt>
      <trkpt lat="49.34526" lon="-1.27299">
        <ele>19</ele>
        <time>2023-07-26T12:10:33Z</time>
      </trkpt>
      <trkpt lat="49.34488" lon="-1.27309">
        <ele>20</ele>
        <time>2023-07-26T12:11:06Z</time>
      </trkpt>
      <trkpt lat="49.34457" lon="-1.27324">
        <ele>21</ele>
        <time>2023-07-26T12:11:37Z</time>
      </trkpt>
      <trkpt lat="49.34448" lon="-1.2733">
        <ele>21</ele>
        <time>2023-07-26T12:11:45Z</time>
      </trkpt>
      <trkpt lat="49.34444" lon="-1.27334">
        <ele>21</ele>
        <time>2023-07-26T12:11:49Z</time>
      </trkpt>
      <trkpt lat="49.34413" lon="-1.27367">
        <ele>18</ele>
        <time>2023-07-26T12:12:22Z</time>
      </trkpt>
      <trkpt lat="49.344" lon="-1.27391">
        <ele>19</ele>
        <time>2023-07-26T12:12:38Z</time>
      </trkpt>
      <trkpt lat="49.34392" lon="-1.27392">
        <ele>19</ele>
        <time>2023-07-26T12:12:42Z</time>
      </trkpt>
      <trkpt lat="49.34382" lon="-1.27401">
        <ele>19</ele>
        <time>2023-07-26T12:12:46Z</time>
      </trkpt>
      <trkpt lat="49.34365" lon="-1.27432">
        <ele>22</ele>
        <time>2023-07-26T12:13:20Z</time>
      </trkpt>
      <trkpt lat="49.34357" lon="-1.27444">
        <ele>24</ele>
        <time>2023-07-26T12:13:30Z</time>
      </trkpt>
      <trkpt lat="49.34353" lon="-1.27449">
        <ele>24</ele>
        <time>2023-07-26T12:13:36Z</time>
      </trkpt>
      <trkpt lat="49.34343" lon="-1.27451">
        <ele>24</ele>
        <time>2023-07-26T12:13:46Z</time>
      </trkpt>
      <trkpt lat="49.34339" lon="-1.27455">
        <ele>25</ele>
        <time>2023-07-26T12:14:00Z</time>
      </trkpt>
      <trkpt lat="49.34323" lon="-1.27449">
        <ele>25</ele>
        <time>2023-07-26T12:14:30Z</time>
      </trkpt>
      <trkpt lat="49.3429" lon="-1.27438">
        <ele>26</ele>
        <time>2023-07-26T12:15:01Z</time>
      </trkpt>
      <trkpt lat="49.34254" lon="-1.27427">
        <ele>28</ele>
        <time>2023-07-26T12:15:35Z</time>
      </trkpt>
      <trkpt lat="49.3422" lon="-1.27416">
        <ele>29</ele>
        <time>2023-07-26T12:16:09Z</time>
      </trkpt>
      <trkpt lat="49.34188" lon="-1.27409">
        <ele>30</ele>
        <time>2023-07-26T12:16:39Z</time>
      </trkpt>
      <trkpt lat="49.34165" lon="-1.27403">
        <ele>30</ele>
        <time>2023-07-26T12:16:59Z</time>
      </trkpt>
      <trkpt lat="49.3416" lon="-1.27401">
        <ele>31</ele>
        <time>2023-07-26T12:17:04Z</time>
      </trkpt>
      <trkpt lat="49.34151" lon="-1.27398">
        <ele>31</ele>
        <time>2023-07-26T12:17:13Z</time>
      </trkpt>
      <trkpt lat="49.34146" lon="-1.27397">
        <ele>30</ele>
        <time>2023-07-26T12:17:17Z</time>
      </trkpt>
      <trkpt lat="49.34142" lon="-1.27396">
        <ele>30</ele>
        <time>2023-07-26T12:17:21Z</time>
      </trkpt>
      <trkpt lat="49.34132" lon="-1.27393">
        <ele>31</ele>
        <time>2023-07-26T12:17:31Z</time>
      </trkpt>
      <trkpt lat="49.34127" lon="-1.27389">
        <ele>31</ele>
        <time>2023-07-26T12:17:38Z</time>
      </trkpt>
      <trkpt lat="49.34116" lon="-1.27389">
        <ele>31</ele>
        <time>2023-07-26T12:17:48Z</time>
      </trkpt>
      <trkpt lat="49.34084" lon="-1.27378">
        <ele>31</ele>
        <time>2023-07-26T12:18:17Z</time>
      </trkpt>
      <trkpt lat="49.34081" lon="-1.27372">
        <ele>31</ele>
        <time>2023-07-26T12:18:23Z</time>
      </trkpt>
      <trkpt lat="49.34078" lon="-1.27367">
        <ele>31</ele>
        <time>2023-07-26T12:18:27Z</time>
      </trkpt>
      <trkpt lat="49.34078" lon="-1.27357">
        <ele>31</ele>
        <time>2023-07-26T12:18:41Z</time>
      </trkpt>
      <trkpt lat="49.34072" lon="-1.27366">
        <ele>31</ele>
        <time>2023-07-26T12:19:11Z</time>
      </trkpt>
      <trkpt lat="49.34057" lon="-1.27366">
        <ele>31</ele>
        <time>2023-07-26T12:19:25Z</time>
      </trkpt>
      <trkpt lat="49.3403" lon="-1.27357">
        <ele>31</ele>
        <time>2023-07-26T12:19:57Z</time>
      </trkpt>
      <trkpt lat="49.33994" lon="-1.27347">
        <ele>31</ele>
        <time>2023-07-26T12:20:29Z</time>
      </trkpt>
      <trkpt lat="49.33958" lon="-1.27336">
        <ele>31</ele>
        <time>2023-07-26T12:21:01Z</time>
      </trkpt>
      <trkpt lat="49.33922" lon="-1.27324">
        <ele>31</ele>
        <time>2023-07-26T12:21:34Z</time>
      </trkpt>
      <trkpt lat="49.33885" lon="-1.27312">
        <ele>31</ele>
        <time>2023-07-26T12:22:07Z</time>
      </trkpt>
      <trkpt lat="49.33881" lon="-1.2731">
        <ele>31</ele>
        <time>2023-07-26T12:22:11Z</time>
      </trkpt>
      <trkpt lat="49.33876" lon="-1.27309">
        <ele>31</ele>
        <time>2023-07-26T12:22:15Z</time>
      </trkpt>
      <trkpt lat="49.3384" lon="-1.27296">
        <ele>31</ele>
        <time>2023-07-26T12:22:47Z</time>
      </trkpt>
      <trkpt lat="49.33813" lon="-1.27289">
        <ele>31</ele>
        <time>2023-07-26T12:23:19Z</time>
      </trkpt>
      <trkpt lat="49.33777" lon="-1.27272">
        <ele>31</ele>
        <time>2023-07-26T12:23:51Z</time>
      </trkpt>
      <trkpt lat="49.33773" lon="-1.2727">
        <ele>31</ele>
        <time>2023-07-26T12:23:55Z</time>
      </trkpt>
      <trkpt lat="49.33764" lon="-1.27268">
        <ele>31</ele>
        <time>2023-07-26T12:24:03Z</time>
      </trkpt>
      <trkpt lat="49.3375" lon="-1.27266">
        <ele>30</ele>
        <time>2023-07-26T12:24:15Z</time>
      </trkpt>
      <trkpt lat="49.33745" lon="-1.27267">
        <ele>30</ele>
        <time>2023-07-26T12:24:19Z</time>
      </trkpt>
      <trkpt lat="49.33743" lon="-1.27274">
        <ele>30</ele>
        <time>2023-07-26T12:24:23Z</time>
      </trkpt>
      <trkpt lat="49.33744" lon="-1.27296">
        <ele>29</ele>
        <time>2023-07-26T12:24:35Z</time>
      </trkpt>
      <trkpt lat="49.33753" lon="-1.27336">
        <ele>30</ele>
        <time>2023-07-26T12:25:06Z</time>
      </trkpt>
      <trkpt lat="49.33754" lon="-1.27344">
        <ele>30</ele>
        <time>2023-07-26T12:25:11Z</time>
      </trkpt>
      <trkpt lat="49.33758" lon="-1.27363">
        <ele>30</ele>
        <time>2023-07-26T12:25:23Z</time>
      </trkpt>
      <trkpt lat="49.33761" lon="-1.27369">
        <ele>30</ele>
        <time>2023-07-26T12:25:28Z</time>
      </trkpt>
      <trkpt lat="49.3377" lon="-1.27405">
        <ele>30</ele>
        <time>2023-07-26T12:26:02Z</time>
      </trkpt>
      <trkpt lat="49.33778" lon="-1.27422">
        <ele>29</ele>
        <time>2023-07-26T12:26:14Z</time>
      </trkpt>
      <trkpt lat="49.33792" lon="-1.2745">
        <ele>30</ele>
        <time>2023-07-26T12:26:34Z</time>
      </trkpt>
      <trkpt lat="49.33798" lon="-1.27461">
        <ele>30</ele>
        <time>2023-07-26T12:26:43Z</time>
      </trkpt>
      <trkpt lat="49.33801" lon="-1.27467">
        <ele>30</ele>
        <time>2023-07-26T12:26:48Z</time>
      </trkpt>
      <trkpt lat="49.33805" lon="-1.27473">
        <ele>29</ele>
        <time>2023-07-26T12:26:53Z</time>
      </trkpt>
      <trkpt lat="49.33811" lon="-1.27484">
        <ele>30</ele>
        <time>2023-07-26T12:27:02Z</time>
      </trkpt>
      <trkpt lat="49.33837" lon="-1.27524">
        <ele>31</ele>
        <time>2023-07-26T12:27:35Z</time>
      </trkpt>
      <trkpt lat="49.33854" lon="-1.27548">
        <ele>31</ele>
        <time>2023-07-26T12:27:56Z</time>
      </trkpt>
      <trkpt lat="49.33863" lon="-1.27562">
        <ele>31</ele>
        <time>2023-07-26T12:28:08Z</time>
      </trkpt>
      <trkpt lat="49.33868" lon="-1.27573">
        <ele>31</ele>
        <time>2023-07-26T12:28:16Z</time>
      </trkpt>
      <trkpt lat="49.33894" lon="-1.27607">
        <ele>31</ele>
        <time>2023-07-26T12:28:49Z</time>
      </trkpt>
      <trkpt lat="49.33911" lon="-1.27632">
        <ele>31</ele>
        <time>2023-07-26T12:29:10Z</time>
      </trkpt>
      <trkpt lat="49.33938" lon="-1.27658">
        <ele>31</ele>
        <time>2023-07-26T12:29:39Z</time>
      </trkpt>
      <trkpt lat="49.33941" lon="-1.27663">
        <ele>31</ele>
        <time>2023-07-26T12:29:43Z</time>
      </trkpt>
      <trkpt lat="49.33974" lon="-1.27694">
        <ele>30</ele>
        <time>2023-07-26T12:30:16Z</time>
      </trkpt>
      <trkpt lat="49.34005" lon="-1.27724">
        <ele>30</ele>
        <time>2023-07-26T12:31:08Z</time>
      </trkpt>
      <trkpt lat="49.34034" lon="-1.27754">
        <ele>29</ele>
        <time>2023-07-26T12:31:40Z</time>
      </trkpt>
      <trkpt lat="49.3405" lon="-1.27771">
        <ele>29</ele>
        <time>2023-07-26T12:31:57Z</time>
      </trkpt>
      <trkpt lat="49.34057" lon="-1.27777">
        <ele>29</ele>
        <time>2023-07-26T12:32:05Z</time>
      </trkpt>
      <trkpt lat="49.34068" lon="-1.27791">
        <ele>29</ele>
        <time>2023-07-26T12:32:18Z</time>
      </trkpt>
      <trkpt lat="49.34077" lon="-1.27794">
        <ele>29</ele>
        <time>2023-07-26T12:32:44Z</time>
      </trkpt>
      <trkpt lat="49.34081" lon="-1.27803">
        <ele>29</ele>
        <time>2023-07-26T12:33:19Z</time>
      </trkpt>
      <trkpt lat="49.34093" lon="-1.27817">
        <ele>29</ele>
        <time>2023-07-26T12:33:31Z</time>
      </trkpt>
      <trkpt lat="49.34115" lon="-1.27836">
        <ele>29</ele>
        <time>2023-07-26T12:33:54Z</time>
      </trkpt>
      <trkpt lat="49.34118" lon="-1.27843">
        <ele>29</ele>
        <time>2023-07-26T12:34:00Z</time>
      </trkpt>
      <trkpt lat="49.34151" lon="-1.2787">
        <ele>28</ele>
        <time>2023-07-26T12:34:32Z</time>
      </trkpt>
      <trkpt lat="49.34185" lon="-1.27901">
        <ele>27</ele>
        <time>2023-07-26T12:35:05Z</time>
      </trkpt>
      <trkpt lat="49.34217" lon="-1.27932">
        <ele>25</ele>
        <time>2023-07-26T12:35:37Z</time>
      </trkpt>
      <trkpt lat="49.34247" lon="-1.27962">
        <ele>24</ele>
        <time>2023-07-26T12:36:09Z</time>
      </trkpt>
      <trkpt lat="49.34254" lon="-1.27971">
        <ele>23</ele>
        <time>2023-07-26T12:36:17Z</time>
      </trkpt>
      <trkpt lat="49.34256" lon="-1.27977">
        <ele>23</ele>
        <time>2023-07-26T12:36:22Z</time>
      </trkpt>
      <trkpt lat="49.34257" lon="-1.27993">
        <ele>22</ele>
        <time>2023-07-26T12:36:43Z</time>
      </trkpt>
      <trkpt lat="49.34258" lon="-1.28006">
        <ele>23</ele>
        <time>2023-07-26T12:36:50Z</time>
      </trkpt>
      <trkpt lat="49.34259" lon="-1.28035">
        <ele>23</ele>
        <time>2023-07-26T12:37:06Z</time>
      </trkpt>
      <trkpt lat="49.34257" lon="-1.28042">
        <ele>23</ele>
        <time>2023-07-26T12:37:10Z</time>
      </trkpt>
      <trkpt lat="49.34254" lon="-1.28047">
        <ele>23</ele>
        <time>2023-07-26T12:37:15Z</time>
      </trkpt>
      <trkpt lat="49.34249" lon="-1.28049">
        <ele>23</ele>
        <time>2023-07-26T12:37:20Z</time>
      </trkpt>
      <trkpt lat="49.34216" lon="-1.28064">
        <ele>23</ele>
        <time>2023-07-26T12:37:52Z</time>
      </trkpt>
      <trkpt lat="49.34182" lon="-1.28084">
        <ele>24</ele>
        <time>2023-07-26T12:38:25Z</time>
      </trkpt>
      <trkpt lat="49.34177" lon="-1.28087">
        <ele>24</ele>
        <time>2023-07-26T12:38:30Z</time>
      </trkpt>
      <trkpt lat="49.34173" lon="-1.28089">
        <ele>23</ele>
        <time>2023-07-26T12:38:34Z</time>
      </trkpt>
      <trkpt lat="49.34157" lon="-1.28098">
        <ele>24</ele>
        <time>2023-07-26T12:39:04Z</time>
      </trkpt>
      <trkpt lat="49.34134" lon="-1.28109">
        <ele>24</ele>
        <time>2023-07-26T12:39:24Z</time>
      </trkpt>
      <trkpt lat="49.34127" lon="-1.28116">
        <ele>23</ele>
        <time>2023-07-26T12:39:32Z</time>
      </trkpt>
      <trkpt lat="49.34095" lon="-1.28142">
        <ele>24</ele>
        <time>2023-07-26T12:40:04Z</time>
      </trkpt>
      <trkpt lat="49.34079" lon="-1.28157">
        <ele>25</ele>
        <time>2023-07-26T12:40:22Z</time>
      </trkpt>
      <trkpt lat="49.34074" lon="-1.28161">
        <ele>24</ele>
        <time>2023-07-26T12:40:27Z</time>
      </trkpt>
      <trkpt lat="49.34046" lon="-1.28187">
        <ele>24</ele>
        <time>2023-07-26T12:40:56Z</time>
      </trkpt>
      <trkpt lat="49.34014" lon="-1.28214">
        <ele>25</ele>
        <time>2023-07-26T12:41:28Z</time>
      </trkpt>
      <trkpt lat="49.3398" lon="-1.28234">
        <ele>25</ele>
        <time>2023-07-26T12:42:00Z</time>
      </trkpt>
      <trkpt lat="49.33945" lon="-1.28253">
        <ele>25</ele>
        <time>2023-07-26T12:42:32Z</time>
      </trkpt>
      <trkpt lat="49.33913" lon="-1.2827">
        <ele>26</ele>
        <time>2023-07-26T12:43:03Z</time>
      </trkpt>
      <trkpt lat="49.33878" lon="-1.28288">
        <ele>26</ele>
        <time>2023-07-26T12:43:35Z</time>
      </trkpt>
      <trkpt lat="49.33865" lon="-1.28296">
        <ele>27</ele>
        <time>2023-07-26T12:43:48Z</time>
      </trkpt>
      <trkpt lat="49.3384" lon="-1.28312">
        <ele>28</ele>
        <time>2023-07-26T12:44:12Z</time>
      </trkpt>
      <trkpt lat="49.33835" lon="-1.28314">
        <ele>27</ele>
        <time>2023-07-26T12:44:16Z</time>
      </trkpt>
      <trkpt lat="49.3381" lon="-1.2833">
        <ele>28</ele>
        <time>2023-07-26T12:44:40Z</time>
      </trkpt>
      <trkpt lat="49.33806" lon="-1.28333">
        <ele>28</ele>
        <time>2023-07-26T12:44:44Z</time>
      </trkpt>
      <trkpt lat="49.33802" lon="-1.28335">
        <ele>28</ele>
        <time>2023-07-26T12:44:48Z</time>
      </trkpt>
      <trkpt lat="49.33789" lon="-1.28345">
        <ele>28</ele>
        <time>2023-07-26T12:45:01Z</time>
      </trkpt>
      <trkpt lat="49.3378" lon="-1.28352">
        <ele>28</ele>
        <time>2023-07-26T12:45:11Z</time>
      </trkpt>
      <trkpt lat="49.33767" lon="-1.28359">
        <ele>28</ele>
        <time>2023-07-26T12:45:24Z</time>
      </trkpt>
      <trkpt lat="49.33732" lon="-1.2837">
        <ele>28</ele>
        <time>2023-07-26T12:45:56Z</time>
      </trkpt>
      <trkpt lat="49.33722" lon="-1.28373">
        <ele>28</ele>
        <time>2023-07-26T12:46:05Z</time>
      </trkpt>
      <trkpt lat="49.33703" lon="-1.28379">
        <ele>28</ele>
        <time>2023-07-26T12:46:21Z</time>
      </trkpt>
      <trkpt lat="49.337" lon="-1.28385">
        <ele>28</ele>
        <time>2023-07-26T12:46:25Z</time>
      </trkpt>
      <trkpt lat="49.33699" lon="-1.28392">
        <ele>28</ele>
        <time>2023-07-26T12:46:29Z</time>
      </trkpt>
      <trkpt lat="49.33699" lon="-1.28421">
        <ele>28</ele>
        <time>2023-07-26T12:48:42Z</time>
      </trkpt>
      <trkpt lat="49.33701" lon="-1.28443">
        <ele>27</ele>
        <time>2023-07-26T12:48:54Z</time>
      </trkpt>
      <trkpt lat="49.337" lon="-1.28451">
        <ele>27</ele>
        <time>2023-07-26T12:48:58Z</time>
      </trkpt>
      <trkpt lat="49.33698" lon="-1.28461">
        <ele>27</ele>
        <time>2023-07-26T12:49:06Z</time>
      </trkpt>
      <trkpt lat="49.33687" lon="-1.2847">
        <ele>27</ele>
        <time>2023-07-26T12:49:18Z</time>
      </trkpt>
      <trkpt lat="49.33668" lon="-1.28479">
        <ele>27</ele>
        <time>2023-07-26T12:49:36Z</time>
      </trkpt>
      <trkpt lat="49.33668" lon="-1.28483">
        <ele>27</ele>
        <time>2023-07-26T12:50:09Z</time>
      </trkpt>
      <trkpt lat="49.33662" lon="-1.28484">
        <ele>26</ele>
        <time>2023-07-26T12:53:13Z</time>
      </trkpt>
      <trkpt lat="49.33657" lon="-1.28483">
        <ele>26</ele>
        <time>2023-07-26T12:53:19Z</time>
      </trkpt>
      <trkpt lat="49.33627" lon="-1.28492">
        <ele>26</ele>
        <time>2023-07-26T12:53:49Z</time>
      </trkpt>
      <trkpt lat="49.33593" lon="-1.28506">
        <ele>25</ele>
        <time>2023-07-26T12:54:21Z</time>
      </trkpt>
      <trkpt lat="49.33557" lon="-1.28524">
        <ele>24</ele>
        <time>2023-07-26T12:54:55Z</time>
      </trkpt>
      <trkpt lat="49.33523" lon="-1.28553">
        <ele>22</ele>
        <time>2023-07-26T12:55:27Z</time>
      </trkpt>
      <trkpt lat="49.3352" lon="-1.28557">
        <ele>22</ele>
        <time>2023-07-26T12:55:31Z</time>
      </trkpt>
      <trkpt lat="49.33489" lon="-1.28586">
        <ele>20</ele>
        <time>2023-07-26T12:56:03Z</time>
      </trkpt>
      <trkpt lat="49.33457" lon="-1.2861">
        <ele>18</ele>
        <time>2023-07-26T12:56:35Z</time>
      </trkpt>
      <trkpt lat="49.33452" lon="-1.28613">
        <ele>18</ele>
        <time>2023-07-26T12:56:39Z</time>
      </trkpt>
      <trkpt lat="49.3344" lon="-1.28621">
        <ele>16</ele>
        <time>2023-07-26T12:56:53Z</time>
      </trkpt>
      <trkpt lat="49.33434" lon="-1.28625">
        <ele>16</ele>
        <time>2023-07-26T12:57:03Z</time>
      </trkpt>
      <trkpt lat="49.33398" lon="-1.28644">
        <ele>14</ele>
        <time>2023-07-26T12:57:35Z</time>
      </trkpt>
      <trkpt lat="49.33364" lon="-1.28665">
        <ele>12</ele>
        <time>2023-07-26T12:58:08Z</time>
      </trkpt>
      <trkpt lat="49.33359" lon="-1.28667">
        <ele>12</ele>
        <time>2023-07-26T12:58:12Z</time>
      </trkpt>
      <trkpt lat="49.33342" lon="-1.28677">
        <ele>11</ele>
        <time>2023-07-26T12:58:28Z</time>
      </trkpt>
      <trkpt lat="49.3334" lon="-1.28681">
        <ele>11</ele>
        <time>2023-07-26T13:03:07Z</time>
      </trkpt>
      <trkpt lat="49.33331" lon="-1.28687">
        <ele>11</ele>
        <time>2023-07-26T13:03:17Z</time>
      </trkpt>
      <trkpt lat="49.33326" lon="-1.28689">
        <ele>11</ele>
        <time>2023-07-26T13:03:22Z</time>
      </trkpt>
      <trkpt lat="49.33321" lon="-1.28691">
        <ele>10</ele>
        <time>2023-07-26T13:03:27Z</time>
      </trkpt>
      <trkpt lat="49.33316" lon="-1.28693">
        <ele>10</ele>
        <time>2023-07-26T13:03:32Z</time>
      </trkpt>
      <trkpt lat="49.33312" lon="-1.28697">
        <ele>10</ele>
        <time>2023-07-26T13:03:37Z</time>
      </trkpt>
      <trkpt lat="49.33307" lon="-1.28699">
        <ele>9</ele>
        <time>2023-07-26T13:03:42Z</time>
      </trkpt>
      <trkpt lat="49.33303" lon="-1.287">
        <ele>10</ele>
        <time>2023-07-26T13:03:46Z</time>
      </trkpt>
      <trkpt lat="49.33266" lon="-1.28715">
        <ele>8</ele>
        <time>2023-07-26T13:04:20Z</time>
      </trkpt>
      <trkpt lat="49.33257" lon="-1.28715">
        <ele>7</ele>
        <time>2023-07-26T13:04:28Z</time>
      </trkpt>
      <trkpt lat="49.33253" lon="-1.28712">
        <ele>7</ele>
        <time>2023-07-26T13:04:32Z</time>
      </trkpt>
      <trkpt lat="49.33249" lon="-1.28707">
        <ele>7</ele>
        <time>2023-07-26T13:04:36Z</time>
      </trkpt>
      <trkpt lat="49.33246" lon="-1.28702">
        <ele>7</ele>
        <time>2023-07-26T13:04:41Z</time>
      </trkpt>
      <trkpt lat="49.33244" lon="-1.28695">
        <ele>6</ele>
        <time>2023-07-26T13:04:46Z</time>
      </trkpt>
      <trkpt lat="49.33241" lon="-1.28688">
        <ele>7</ele>
        <time>2023-07-26T13:04:51Z</time>
      </trkpt>
      <trkpt lat="49.33235" lon="-1.28663">
        <ele>6</ele>
        <time>2023-07-26T13:05:07Z</time>
      </trkpt>
      <trkpt lat="49.33233" lon="-1.2865">
        <ele>6</ele>
        <time>2023-07-26T13:05:15Z</time>
      </trkpt>
      <trkpt lat="49.3323" lon="-1.28628">
        <ele>7</ele>
        <time>2023-07-26T13:05:29Z</time>
      </trkpt>
      <trkpt lat="49.33222" lon="-1.28578">
        <ele>7</ele>
        <time>2023-07-26T13:06:00Z</time>
      </trkpt>
      <trkpt lat="49.3322" lon="-1.28571">
        <ele>7</ele>
        <time>2023-07-26T13:06:05Z</time>
      </trkpt>
      <trkpt lat="49.33216" lon="-1.28569">
        <ele>7</ele>
        <time>2023-07-26T13:06:18Z</time>
      </trkpt>
      <trkpt lat="49.33219" lon="-1.28555">
        <ele>6</ele>
        <time>2023-07-26T13:07:08Z</time>
      </trkpt>
      <trkpt lat="49.3321" lon="-1.285">
        <ele>6</ele>
        <time>2023-07-26T13:07:42Z</time>
      </trkpt>
      <trkpt lat="49.33208" lon="-1.28494">
        <ele>6</ele>
        <time>2023-07-26T13:07:46Z</time>
      </trkpt>
      <trkpt lat="49.33203" lon="-1.28447">
        <ele>6</ele>
        <time>2023-07-26T13:08:19Z</time>
      </trkpt>
      <trkpt lat="49.33202" lon="-1.28441">
        <ele>6</ele>
        <time>2023-07-26T13:08:23Z</time>
      </trkpt>
      <trkpt lat="49.33198" lon="-1.28439">
        <ele>6</ele>
        <time>2023-07-26T13:08:33Z</time>
      </trkpt>
      <trkpt lat="49.332" lon="-1.28431">
        <ele>6</ele>
        <time>2023-07-26T13:09:38Z</time>
      </trkpt>
      <trkpt lat="49.33201" lon="-1.28424">
        <ele>6</ele>
        <time>2023-07-26T13:09:43Z</time>
        <extensions>
          <visugpx:TrkExtension xmlns:visugpx="https://www.visugpx.com/editgpx/">
            <visugpx:node>1</visugpx:node>
            </visugpx:TrkExtension>
        </extensions>
      </trkpt>
      <trkpt lat="49.33196" lon="-1.284">
        <ele>5.1</ele>
      </trkpt>
      <trkpt lat="49.33173" lon="-1.28363">
        <ele>5</ele>
      </trkpt>
      <trkpt lat="49.33147" lon="-1.28297">
        <ele>6.6</ele>
      </trkpt>
      <trkpt lat="49.3311" lon="-1.28194">
        <ele>8</ele>
      </trkpt>
      <trkpt lat="49.33087" lon="-1.28136">
        <ele>7.4</ele>
      </trkpt>
      <trkpt lat="49.33068" lon="-1.28102">
        <ele>7.6</ele>
      </trkpt>
      <trkpt lat="49.33066" lon="-1.28096">
        <ele>7.6</ele>
      </trkpt>
      <trkpt lat="49.33057" lon="-1.28079">
        <ele>7.3</ele>
      </trkpt>
      <trkpt lat="49.33048" lon="-1.28059">
        <ele>7.4</ele>
      </trkpt>
      <trkpt lat="49.33048" lon="-1.28054">
        <ele>7.5</ele>
        <extensions>
          <visugpx:TrkExtension xmlns:visugpx="https://www.visugpx.com/editgpx/">
            <visugpx:node>2</visugpx:node>
            </visugpx:TrkExtension>
        </extensions>
      </trkpt>
      <trkpt lat="49.33046" lon="-1.28032">
        <ele>7.3</ele>
      </trkpt>
      <trkpt lat="49.33041" lon="-1.27976">
        <ele>7.9</ele>
      </trkpt>
      <trkpt lat="49.33038" lon="-1.27957">
        <ele>7.7</ele>
      </trkpt>
      <trkpt lat="49.33034" lon="-1.27923">
        <ele>8</ele>
      </trkpt>
      <trkpt lat="49.33029" lon="-1.27868">
        <ele>7.8</ele>
      </trkpt>
      <trkpt lat="49.33023" lon="-1.27809">
        <ele>9.2</ele>
      </trkpt>
      <trkpt lat="49.33012" lon="-1.27717">
        <ele>13.3</ele>
      </trkpt>
      <trkpt lat="49.33001" lon="-1.27631">
        <ele>17.2</ele>
      </trkpt>
      <trkpt lat="49.3299" lon="-1.27546">
        <ele>20.1</ele>
      </trkpt>
      <trkpt lat="49.32985" lon="-1.27483">
        <ele>21.3</ele>
      </trkpt>
      <trkpt lat="49.32985" lon="-1.27468">
        <ele>21.6</ele>
        <extensions>
          <visugpx:TrkExtension xmlns:visugpx="https://www.visugpx.com/editgpx/">
            <visugpx:node>3</visugpx:node>
            </visugpx:TrkExtension>
        </extensions>
      </trkpt>
      <trkpt lat="49.32985" lon="-1.27454">
        <ele>21.8</ele>
      </trkpt>
      <trkpt lat="49.32991" lon="-1.27427">
        <ele>22</ele>
      </trkpt>
      <trkpt lat="49.32998" lon="-1.27401">
        <ele>22.6</ele>
      </trkpt>
      <trkpt lat="49.33004" lon="-1.27367">
        <ele>23</ele>
      </trkpt>
      <trkpt lat="49.3301" lon="-1.27328">
        <ele>23.2</ele>
      </trkpt>
      <trkpt lat="49.33023" lon="-1.27254">
        <ele>24.1</ele>
      </trkpt>
      <trkpt lat="49.33032" lon="-1.27182">
        <ele>25</ele>
      </trkpt>
      <trkpt lat="49.33034" lon="-1.27149">
        <ele>25.5</ele>
      </trkpt>
      <trkpt lat="49.33032" lon="-1.27118">
        <ele>26</ele>
      </trkpt>
      <trkpt lat="49.33029" lon="-1.2709">
        <ele>26</ele>
      </trkpt>
      <trkpt lat="49.3303" lon="-1.27074">
        <ele>26</ele>
      </trkpt>
      <trkpt lat="49.33035" lon="-1.27065">
        <ele>26</ele>
      </trkpt>
      <trkpt lat="49.33044" lon="-1.27062">
        <ele>26</ele>
      </trkpt>
      <trkpt lat="49.33058" lon="-1.27066">
        <ele>25.9</ele>
      </trkpt>
      <trkpt lat="49.33075" lon="-1.2707">
        <ele>25.3</ele>
      </trkpt>
      <trkpt lat="49.3309" lon="-1.27069">
        <ele>25</ele>
      </trkpt>
      <trkpt lat="49.33097" lon="-1.27057">
        <ele>25</ele>
      </trkpt>
      <trkpt lat="49.33103" lon="-1.27038">
        <ele>25.2</ele>
      </trkpt>
      <trkpt lat="49.33106" lon="-1.27029">
        <ele>25.2</ele>
      </trkpt>
      <trkpt lat="49.33109" lon="-1.27007">
        <ele>24.3</ele>
      </trkpt>
      <trkpt lat="49.33115" lon="-1.27009">
        <ele>24.4</ele>
        <extensions>
          <visugpx:TrkExtension xmlns:visugpx="https://www.visugpx.com/editgpx/">
            <visugpx:node>4</visugpx:node>
            </visugpx:TrkExtension>
        </extensions>
      </trkpt>
      <trkpt lat="49.3311" lon="-1.27011">
        <ele>10</ele>
        <time>2023-07-26T13:31:54Z</time>
        <extensions>
          <visugpx:TrkExtension xmlns:visugpx="https://www.visugpx.com/editgpx/">
            <visugpx:node>1</visugpx:node>
            </visugpx:TrkExtension>
        </extensions>
      </trkpt>
      <trkpt lat="49.33105" lon="-1.27017">
        <ele>10</ele>
        <time>2023-07-26T13:32:30Z</time>
      </trkpt>
      <trkpt lat="49.33102" lon="-1.27007">
        <ele>11</ele>
        <time>2023-07-26T13:32:53Z</time>
      </trkpt>
      <trkpt lat="49.33098" lon="-1.26998">
        <ele>11</ele>
        <time>2023-07-26T13:33:00Z</time>
      </trkpt>
      <trkpt lat="49.33095" lon="-1.26992">
        <ele>11</ele>
        <time>2023-07-26T13:33:04Z</time>
      </trkpt>
      <trkpt lat="49.33064" lon="-1.26979">
        <ele>11</ele>
        <time>2023-07-26T13:33:32Z</time>
      </trkpt>
      <trkpt lat="49.33056" lon="-1.26975">
        <ele>12</ele>
        <time>2023-07-26T13:33:40Z</time>
      </trkpt>
      <trkpt lat="49.3302" lon="-1.26957">
        <ele>10</ele>
        <time>2023-07-26T13:34:13Z</time>
      </trkpt>
      <trkpt lat="49.32984" lon="-1.26941">
        <ele>9</ele>
        <time>2023-07-26T13:34:46Z</time>
      </trkpt>
      <trkpt lat="49.32948" lon="-1.26924">
        <ele>7</ele>
        <time>2023-07-26T13:35:19Z</time>
      </trkpt>
      <trkpt lat="49.32929" lon="-1.26916">
        <ele>7</ele>
        <time>2023-07-26T13:35:38Z</time>
      </trkpt>
      <trkpt lat="49.32917" lon="-1.26899">
        <ele>7</ele>
        <time>2023-07-26T13:35:56Z</time>
      </trkpt>
      <trkpt lat="49.32913" lon="-1.26894">
        <ele>7</ele>
        <time>2023-07-26T13:36:22Z</time>
      </trkpt>
      <trkpt lat="49.32904" lon="-1.26891">
        <ele>8</ele>
        <time>2023-07-26T13:36:56Z</time>
      </trkpt>
      <trkpt lat="49.32899" lon="-1.2689">
        <ele>7</ele>
        <time>2023-07-26T13:37:01Z</time>
      </trkpt>
      <trkpt lat="49.32885" lon="-1.26885">
        <ele>6</ele>
        <time>2023-07-26T13:37:13Z</time>
      </trkpt>
      <trkpt lat="49.32881" lon="-1.26887">
        <ele>6</ele>
        <time>2023-07-26T13:37:17Z</time>
      </trkpt>
      <trkpt lat="49.32876" lon="-1.26886">
        <ele>5</ele>
        <time>2023-07-26T13:37:21Z</time>
      </trkpt>
      <trkpt lat="49.32863" lon="-1.26881">
        <ele>5</ele>
        <time>2023-07-26T13:37:34Z</time>
      </trkpt>
      <trkpt lat="49.32858" lon="-1.2688">
        <ele>5</ele>
        <time>2023-07-26T13:37:39Z</time>
      </trkpt>
      <trkpt lat="49.32854" lon="-1.2688">
        <ele>5</ele>
        <time>2023-07-26T13:37:43Z</time>
      </trkpt>
      <trkpt lat="49.32849" lon="-1.26878">
        <ele>5</ele>
        <time>2023-07-26T13:37:48Z</time>
      </trkpt>
      <trkpt lat="49.32845" lon="-1.26873">
        <ele>4</ele>
        <time>2023-07-26T13:37:55Z</time>
      </trkpt>
      <trkpt lat="49.32844" lon="-1.26862">
        <ele>7</ele>
        <time>2023-07-26T13:41:18Z</time>
      </trkpt>
      <trkpt lat="49.32846" lon="-1.26854">
        <ele>7</ele>
        <time>2023-07-26T13:41:30Z</time>
      </trkpt>
      <trkpt lat="49.32842" lon="-1.26836">
        <ele>7</ele>
        <time>2023-07-26T13:41:43Z</time>
      </trkpt>
      <trkpt lat="49.32836" lon="-1.26826">
        <ele>7</ele>
        <time>2023-07-26T13:41:51Z</time>
      </trkpt>
      <trkpt lat="49.32831" lon="-1.26813">
        <ele>6</ele>
        <time>2023-07-26T13:41:59Z</time>
      </trkpt>
      <trkpt lat="49.32831" lon="-1.26807">
        <ele>5</ele>
        <time>2023-07-26T13:42:03Z</time>
      </trkpt>
      <trkpt lat="49.32833" lon="-1.26792">
        <ele>5</ele>
        <time>2023-07-26T13:42:12Z</time>
      </trkpt>
      <trkpt lat="49.32845" lon="-1.26757">
        <ele>4</ele>
        <time>2023-07-26T13:42:37Z</time>
      </trkpt>
      <trkpt lat="49.32851" lon="-1.26746">
        <ele>3</ele>
        <time>2023-07-26T13:42:45Z</time>
      </trkpt>
      <trkpt lat="49.32854" lon="-1.26739">
        <ele>3</ele>
        <time>2023-07-26T13:42:50Z</time>
      </trkpt>
      <trkpt lat="49.32861" lon="-1.2672">
        <ele>3</ele>
        <time>2023-07-26T13:43:04Z</time>
      </trkpt>
      <trkpt lat="49.32864" lon="-1.26711">
        <ele>3</ele>
        <time>2023-07-26T13:43:16Z</time>
      </trkpt>
      <trkpt lat="49.32885" lon="-1.26676">
        <ele>3</ele>
        <time>2023-07-26T13:43:47Z</time>
      </trkpt>
      <trkpt lat="49.32889" lon="-1.26671">
        <ele>3</ele>
        <time>2023-07-26T13:43:51Z</time>
      </trkpt>
      <trkpt lat="49.32911" lon="-1.26624">
        <ele>3</ele>
        <time>2023-07-26T13:44:31Z</time>
      </trkpt>
      <trkpt lat="49.32914" lon="-1.26618">
        <ele>3</ele>
        <time>2023-07-26T13:44:35Z</time>
      </trkpt>
      <trkpt lat="49.32929" lon="-1.26593">
        <ele>3</ele>
        <time>2023-07-26T13:44:55Z</time>
      </trkpt>
      <trkpt lat="49.32938" lon="-1.26571">
        <ele>3</ele>
        <time>2023-07-26T13:45:12Z</time>
      </trkpt>
      <trkpt lat="49.3296" lon="-1.26533">
        <ele>4</ele>
        <time>2023-07-26T13:45:42Z</time>
      </trkpt>
      <trkpt lat="49.3298" lon="-1.2649">
        <ele>4</ele>
        <time>2023-07-26T13:46:13Z</time>
      </trkpt>
      <trkpt lat="49.33001" lon="-1.26446">
        <ele>4</ele>
        <time>2023-07-26T13:46:45Z</time>
      </trkpt>
      <trkpt lat="49.33013" lon="-1.26419">
        <ele>4</ele>
        <time>2023-07-26T13:47:10Z</time>
      </trkpt>
      <trkpt lat="49.3302" lon="-1.26409">
        <ele>4</ele>
        <time>2023-07-26T13:47:20Z</time>
      </trkpt>
      <trkpt lat="49.33038" lon="-1.26372">
        <ele>5</ele>
        <time>2023-07-26T13:47:50Z</time>
      </trkpt>
      <trkpt lat="49.33059" lon="-1.26331">
        <ele>5</ele>
        <time>2023-07-26T13:48:22Z</time>
      </trkpt>
      <trkpt lat="49.33079" lon="-1.2629">
        <ele>6</ele>
        <time>2023-07-26T13:48:53Z</time>
      </trkpt>
      <trkpt lat="49.33086" lon="-1.26279">
        <ele>6</ele>
        <time>2023-07-26T13:49:02Z</time>
      </trkpt>
      <trkpt lat="49.33088" lon="-1.26272">
        <ele>6</ele>
        <time>2023-07-26T13:49:06Z</time>
      </trkpt>
      <trkpt lat="49.33107" lon="-1.26226">
        <ele>6</ele>
        <time>2023-07-26T13:49:39Z</time>
      </trkpt>
      <trkpt lat="49.33114" lon="-1.26195">
        <ele>6</ele>
        <time>2023-07-26T13:49:59Z</time>
      </trkpt>
      <trkpt lat="49.33115" lon="-1.26188">
        <ele>6</ele>
        <time>2023-07-26T13:50:03Z</time>
      </trkpt>
      <trkpt lat="49.33112" lon="-1.26178">
        <ele>5</ele>
        <time>2023-07-26T13:50:12Z</time>
      </trkpt>
      <trkpt lat="49.33106" lon="-1.26175">
        <ele>4</ele>
        <time>2023-07-26T13:50:37Z</time>
      </trkpt>
      <trkpt lat="49.33074" lon="-1.26153">
        <ele>1</ele>
        <time>2023-07-26T13:51:10Z</time>
      </trkpt>
      <trkpt lat="49.33059" lon="-1.26138">
        <ele>2.4</ele>
        <time>2023-07-26T13:51:27Z</time>
      </trkpt>
      <trkpt lat="49.33049" lon="-1.26123">
        <ele>2.5</ele>
        <time>2023-07-26T13:51:40Z</time>
      </trkpt>
      <trkpt lat="49.33026" lon="-1.26078">
        <ele>1</ele>
        <time>2023-07-26T13:52:14Z</time>
      </trkpt>
      <trkpt lat="49.33001" lon="-1.26036">
        <ele>1</ele>
        <time>2023-07-26T13:52:47Z</time>
      </trkpt>
      <trkpt lat="49.32975" lon="-1.25995">
        <ele>1</ele>
        <time>2023-07-26T13:53:21Z</time>
      </trkpt>
      <trkpt lat="49.3296" lon="-1.25968">
        <ele>1</ele>
        <time>2023-07-26T13:53:42Z</time>
      </trkpt>
      <trkpt lat="49.32956" lon="-1.25963">
        <ele>2</ele>
        <time>2023-07-26T13:53:46Z</time>
      </trkpt>
      <trkpt lat="49.32932" lon="-1.25924">
        <ele>2</ele>
        <time>2023-07-26T13:54:19Z</time>
      </trkpt>
      <trkpt lat="49.32929" lon="-1.25919">
        <ele>2</ele>
        <time>2023-07-26T13:54:23Z</time>
      </trkpt>
      <trkpt lat="49.32925" lon="-1.25913">
        <ele>2</ele>
        <time>2023-07-26T13:55:09Z</time>
      </trkpt>
      <trkpt lat="49.32911" lon="-1.25888">
        <ele>2</ele>
        <time>2023-07-26T13:55:52Z</time>
      </trkpt>
      <trkpt lat="49.32907" lon="-1.25882">
        <ele>2</ele>
        <time>2023-07-26T13:55:57Z</time>
      </trkpt>
      <trkpt lat="49.32903" lon="-1.25881">
        <ele>3</ele>
        <time>2023-07-26T13:56:01Z</time>
      </trkpt>
      <trkpt lat="49.329" lon="-1.25875">
        <ele>2</ele>
        <time>2023-07-26T13:56:13Z</time>
      </trkpt>
      <trkpt lat="49.32897" lon="-1.25869">
        <ele>3</ele>
        <time>2023-07-26T13:56:17Z</time>
      </trkpt>
      <trkpt lat="49.32882" lon="-1.2585">
        <ele>2</ele>
        <time>2023-07-26T13:56:33Z</time>
      </trkpt>
      <trkpt lat="49.32878" lon="-1.25847">
        <ele>2</ele>
        <time>2023-07-26T13:56:37Z</time>
      </trkpt>
      <trkpt lat="49.32873" lon="-1.25846">
        <ele>3</ele>
        <time>2023-07-26T13:56:41Z</time>
      </trkpt>
      <trkpt lat="49.32868" lon="-1.25848">
        <ele>3</ele>
        <time>2023-07-26T13:56:45Z</time>
      </trkpt>
      <trkpt lat="49.32864" lon="-1.25851">
        <ele>3</ele>
        <time>2023-07-26T13:56:49Z</time>
      </trkpt>
      <trkpt lat="49.32855" lon="-1.25857">
        <ele>3</ele>
        <time>2023-07-26T13:56:57Z</time>
      </trkpt>
      <trkpt lat="49.32843" lon="-1.2587">
        <ele>2</ele>
        <time>2023-07-26T13:57:10Z</time>
      </trkpt>
      <trkpt lat="49.32831" lon="-1.25882">
        <ele>2</ele>
        <time>2023-07-26T13:57:22Z</time>
      </trkpt>
      <trkpt lat="49.32827" lon="-1.25885">
        <ele>2</ele>
        <time>2023-07-26T13:57:26Z</time>
      </trkpt>
      <trkpt lat="49.3282" lon="-1.25894">
        <ele>3</ele>
        <time>2023-07-26T13:57:34Z</time>
      </trkpt>
      <trkpt lat="49.32816" lon="-1.25897">
        <ele>2</ele>
        <time>2023-07-26T13:57:38Z</time>
      </trkpt>
      <trkpt lat="49.32813" lon="-1.25902">
        <ele>3</ele>
        <time>2023-07-26T13:57:42Z</time>
      </trkpt>
      <trkpt lat="49.32808" lon="-1.25906">
        <ele>2</ele>
        <time>2023-07-26T13:57:47Z</time>
      </trkpt>
      <trkpt lat="49.32801" lon="-1.25913">
        <ele>3</ele>
        <time>2023-07-26T13:57:55Z</time>
      </trkpt>
      <trkpt lat="49.32797" lon="-1.25916">
        <ele>3</ele>
        <time>2023-07-26T13:57:59Z</time>
      </trkpt>
      <trkpt lat="49.32789" lon="-1.25921">
        <ele>3</ele>
        <time>2023-07-26T13:58:07Z</time>
      </trkpt>
      <trkpt lat="49.32779" lon="-1.25924">
        <ele>3</ele>
        <time>2023-07-26T13:58:16Z</time>
      </trkpt>
      <trkpt lat="49.32774" lon="-1.25927">
        <ele>3</ele>
        <time>2023-07-26T13:58:21Z</time>
      </trkpt>
      <trkpt lat="49.32756" lon="-1.25933">
        <ele>2</ele>
        <time>2023-07-26T13:58:38Z</time>
      </trkpt>
      <trkpt lat="49.32748" lon="-1.25936">
        <ele>3</ele>
        <time>2023-07-26T13:58:46Z</time>
      </trkpt>
      <trkpt lat="49.32738" lon="-1.25939">
        <ele>2</ele>
        <time>2023-07-26T13:58:55Z</time>
      </trkpt>
      <trkpt lat="49.32734" lon="-1.2594">
        <ele>3</ele>
        <time>2023-07-26T13:58:59Z</time>
      </trkpt>
      <trkpt lat="49.32723" lon="-1.25945">
        <ele>2</ele>
        <time>2023-07-26T14:00:36Z</time>
      </trkpt>
      <trkpt lat="49.3271" lon="-1.25948">
        <ele>2</ele>
        <time>2023-07-26T14:00:48Z</time>
      </trkpt>
      <trkpt lat="49.32705" lon="-1.25949">
        <ele>2</ele>
        <time>2023-07-26T14:00:52Z</time>
      </trkpt>
      <trkpt lat="49.327" lon="-1.25951">
        <ele>2</ele>
        <time>2023-07-26T14:00:56Z</time>
      </trkpt>
      <trkpt lat="49.32681" lon="-1.25956">
        <ele>2</ele>
        <time>2023-07-26T14:01:12Z</time>
      </trkpt>
      <trkpt lat="49.32677" lon="-1.25957">
        <ele>2</ele>
        <time>2023-07-26T14:01:16Z</time>
      </trkpt>
      <trkpt lat="49.32667" lon="-1.25959">
        <ele>2</ele>
        <time>2023-07-26T14:01:24Z</time>
      </trkpt>
      <trkpt lat="49.32663" lon="-1.25961">
        <ele>2</ele>
        <time>2023-07-26T14:01:28Z</time>
      </trkpt>
      <trkpt lat="49.32645" lon="-1.25966">
        <ele>2</ele>
        <time>2023-07-26T14:01:44Z</time>
      </trkpt>
      <trkpt lat="49.3263" lon="-1.25972">
        <ele>2</ele>
        <time>2023-07-26T14:01:58Z</time>
      </trkpt>
      <trkpt lat="49.32625" lon="-1.25973">
        <ele>2</ele>
        <time>2023-07-26T14:02:02Z</time>
      </trkpt>
      <trkpt lat="49.32612" lon="-1.25977">
        <ele>2</ele>
        <time>2023-07-26T14:02:14Z</time>
      </trkpt>
      <trkpt lat="49.32607" lon="-1.25979">
        <ele>2</ele>
        <time>2023-07-26T14:02:19Z</time>
      </trkpt>
      <trkpt lat="49.32598" lon="-1.25982">
        <ele>2</ele>
        <time>2023-07-26T14:02:27Z</time>
      </trkpt>
      <trkpt lat="49.32575" lon="-1.25988">
        <ele>2</ele>
        <time>2023-07-26T14:02:47Z</time>
      </trkpt>
      <trkpt lat="49.32566" lon="-1.2599">
        <ele>2</ele>
        <time>2023-07-26T14:02:55Z</time>
      </trkpt>
      <trkpt lat="49.32561" lon="-1.25991">
        <ele>2</ele>
        <time>2023-07-26T14:02:59Z</time>
      </trkpt>
      <trkpt lat="49.32557" lon="-1.25992">
        <ele>2</ele>
        <time>2023-07-26T14:03:03Z</time>
      </trkpt>
      <trkpt lat="49.32552" lon="-1.25992">
        <ele>2</ele>
        <time>2023-07-26T14:03:07Z</time>
      </trkpt>
      <trkpt lat="49.32542" lon="-1.2599">
        <ele>2</ele>
        <time>2023-07-26T14:03:16Z</time>
      </trkpt>
      <trkpt lat="49.32528" lon="-1.25983">
        <ele>2</ele>
        <time>2023-07-26T14:03:38Z</time>
      </trkpt>
      <trkpt lat="49.32523" lon="-1.2598">
        <ele>2</ele>
        <time>2023-07-26T14:03:42Z</time>
      </trkpt>
      <trkpt lat="49.32519" lon="-1.25977">
        <ele>2</ele>
        <time>2023-07-26T14:03:46Z</time>
      </trkpt>
      <trkpt lat="49.32515" lon="-1.25974">
        <ele>2</ele>
        <time>2023-07-26T14:03:50Z</time>
      </trkpt>
      <trkpt lat="49.32507" lon="-1.25967">
        <ele>2</ele>
        <time>2023-07-26T14:03:58Z</time>
      </trkpt>
      <trkpt lat="49.32496" lon="-1.25956">
        <ele>2</ele>
        <time>2023-07-26T14:04:10Z</time>
      </trkpt>
      <trkpt lat="49.32491" lon="-1.25954">
        <ele>2</ele>
        <time>2023-07-26T14:04:14Z</time>
      </trkpt>
      <trkpt lat="49.32481" lon="-1.25955">
        <ele>2</ele>
        <time>2023-07-26T14:04:23Z</time>
      </trkpt>
      <trkpt lat="49.32476" lon="-1.25966">
        <ele>2</ele>
        <time>2023-07-26T14:04:50Z</time>
      </trkpt>
      <trkpt lat="49.3247" lon="-1.25977">
        <ele>2</ele>
        <time>2023-07-26T14:04:58Z</time>
      </trkpt>
      <trkpt lat="49.32467" lon="-1.25983">
        <ele>2</ele>
        <time>2023-07-26T14:05:02Z</time>
      </trkpt>
      <trkpt lat="49.32461" lon="-1.25994">
        <ele>2</ele>
        <time>2023-07-26T14:05:11Z</time>
      </trkpt>
      <trkpt lat="49.32458" lon="-1.25999">
        <ele>2</ele>
        <time>2023-07-26T14:05:15Z</time>
      </trkpt>
      <trkpt lat="49.32456" lon="-1.26005">
        <ele>2</ele>
        <time>2023-07-26T14:05:19Z</time>
      </trkpt>
      <trkpt lat="49.32453" lon="-1.2601">
        <ele>2</ele>
        <time>2023-07-26T14:05:23Z</time>
      </trkpt>
      <trkpt lat="49.32445" lon="-1.26026">
        <ele>2</ele>
        <time>2023-07-26T14:05:35Z</time>
      </trkpt>
      <trkpt lat="49.32442" lon="-1.26032">
        <ele>3</ele>
        <time>2023-07-26T14:05:40Z</time>
      </trkpt>
      <trkpt lat="49.32436" lon="-1.26043">
        <ele>3</ele>
        <time>2023-07-26T14:05:48Z</time>
      </trkpt>
      <trkpt lat="49.32432" lon="-1.26049">
        <ele>2</ele>
        <time>2023-07-26T14:05:53Z</time>
      </trkpt>
      <trkpt lat="49.32429" lon="-1.26054">
        <ele>1</ele>
        <time>2023-07-26T14:05:57Z</time>
      </trkpt>
      <trkpt lat="49.32426" lon="-1.2606">
        <ele>2</ele>
        <time>2023-07-26T14:06:01Z</time>
      </trkpt>
      <trkpt lat="49.32418" lon="-1.26076">
        <ele>3</ele>
        <time>2023-07-26T14:06:14Z</time>
      </trkpt>
      <trkpt lat="49.32408" lon="-1.26093">
        <ele>3</ele>
        <time>2023-07-26T14:06:27Z</time>
      </trkpt>
      <trkpt lat="49.32405" lon="-1.26098">
        <ele>2</ele>
        <time>2023-07-26T14:06:31Z</time>
      </trkpt>
      <trkpt lat="49.32399" lon="-1.26108">
        <ele>2</ele>
        <time>2023-07-26T14:06:39Z</time>
      </trkpt>
      <trkpt lat="49.32396" lon="-1.26113">
        <ele>3</ele>
        <time>2023-07-26T14:06:43Z</time>
      </trkpt>
      <trkpt lat="49.32391" lon="-1.26125">
        <ele>2</ele>
        <time>2023-07-26T14:06:51Z</time>
      </trkpt>
      <trkpt lat="49.32387" lon="-1.26129">
        <ele>2</ele>
        <time>2023-07-26T14:06:55Z</time>
      </trkpt>
      <trkpt lat="49.32384" lon="-1.26135">
        <ele>3</ele>
        <time>2023-07-26T14:06:59Z</time>
      </trkpt>
      <trkpt lat="49.32381" lon="-1.2614">
        <ele>2</ele>
        <time>2023-07-26T14:07:03Z</time>
      </trkpt>
      <trkpt lat="49.32378" lon="-1.26145">
        <ele>2</ele>
        <time>2023-07-26T14:07:07Z</time>
      </trkpt>
      <trkpt lat="49.32366" lon="-1.26165">
        <ele>2</ele>
        <time>2023-07-26T14:07:23Z</time>
      </trkpt>
      <trkpt lat="49.32361" lon="-1.26175">
        <ele>2</ele>
        <time>2023-07-26T14:07:31Z</time>
      </trkpt>
      <trkpt lat="49.32358" lon="-1.2618">
        <ele>2</ele>
        <time>2023-07-26T14:07:35Z</time>
      </trkpt>
      <trkpt lat="49.32352" lon="-1.26191">
        <ele>2</ele>
        <time>2023-07-26T14:07:43Z</time>
      </trkpt>
      <trkpt lat="49.32349" lon="-1.26196">
        <ele>2</ele>
        <time>2023-07-26T14:07:47Z</time>
      </trkpt>
      <trkpt lat="49.32346" lon="-1.26201">
        <ele>2</ele>
        <time>2023-07-26T14:07:51Z</time>
      </trkpt>
      <trkpt lat="49.32343" lon="-1.26206">
        <ele>2</ele>
        <time>2023-07-26T14:07:55Z</time>
      </trkpt>
      <trkpt lat="49.32337" lon="-1.26217">
        <ele>1</ele>
        <time>2023-07-26T14:08:03Z</time>
      </trkpt>
      <trkpt lat="49.32332" lon="-1.26228">
        <ele>2</ele>
        <time>2023-07-26T14:08:11Z</time>
      </trkpt>
      <trkpt lat="49.32329" lon="-1.26234">
        <ele>2</ele>
        <time>2023-07-26T14:08:16Z</time>
      </trkpt>
      <trkpt lat="49.32326" lon="-1.26239">
        <ele>3</ele>
        <time>2023-07-26T14:08:20Z</time>
      </trkpt>
      <trkpt lat="49.32321" lon="-1.2625">
        <ele>2</ele>
        <time>2023-07-26T14:08:28Z</time>
      </trkpt>
      <trkpt lat="49.32319" lon="-1.26256">
        <ele>2</ele>
        <time>2023-07-26T14:08:32Z</time>
      </trkpt>
      <trkpt lat="49.32316" lon="-1.26262">
        <ele>2</ele>
        <time>2023-07-26T14:08:36Z</time>
      </trkpt>
      <trkpt lat="49.32311" lon="-1.26273">
        <ele>2</ele>
        <time>2023-07-26T14:08:44Z</time>
      </trkpt>
      <trkpt lat="49.32309" lon="-1.26278">
        <ele>2</ele>
        <time>2023-07-26T14:08:48Z</time>
      </trkpt>
      <trkpt lat="49.32306" lon="-1.26284">
        <ele>2</ele>
        <time>2023-07-26T14:08:52Z</time>
      </trkpt>
      <trkpt lat="49.32289" lon="-1.26326">
        <ele>2</ele>
        <time>2023-07-26T14:09:21Z</time>
      </trkpt>
      <trkpt lat="49.32287" lon="-1.26333">
        <ele>2</ele>
        <time>2023-07-26T14:09:26Z</time>
      </trkpt>
      <trkpt lat="49.32283" lon="-1.26345">
        <ele>2</ele>
        <time>2023-07-26T14:09:34Z</time>
      </trkpt>
      <trkpt lat="49.32272" lon="-1.26367">
        <ele>2</ele>
        <time>2023-07-26T14:09:50Z</time>
      </trkpt>
      <trkpt lat="49.32266" lon="-1.26377">
        <ele>2</ele>
        <time>2023-07-26T14:09:58Z</time>
      </trkpt>
      <trkpt lat="49.3226" lon="-1.26386">
        <ele>1</ele>
        <time>2023-07-26T14:10:06Z</time>
      </trkpt>
      <trkpt lat="49.32254" lon="-1.26396">
        <ele>2</ele>
        <time>2023-07-26T14:10:14Z</time>
      </trkpt>
      <trkpt lat="49.32251" lon="-1.26401">
        <ele>2</ele>
        <time>2023-07-26T14:10:18Z</time>
      </trkpt>
      <trkpt lat="49.32247" lon="-1.26405">
        <ele>2</ele>
        <time>2023-07-26T14:10:22Z</time>
      </trkpt>
      <trkpt lat="49.32234" lon="-1.26425">
        <ele>2</ele>
        <time>2023-07-26T14:10:38Z</time>
      </trkpt>
      <trkpt lat="49.32231" lon="-1.2643">
        <ele>2</ele>
        <time>2023-07-26T14:10:42Z</time>
      </trkpt>
      <trkpt lat="49.32226" lon="-1.2644">
        <ele>3</ele>
        <time>2023-07-26T14:10:50Z</time>
      </trkpt>
      <trkpt lat="49.32223" lon="-1.26446">
        <ele>3</ele>
        <time>2023-07-26T14:10:54Z</time>
      </trkpt>
      <trkpt lat="49.3222" lon="-1.26452">
        <ele>3</ele>
        <time>2023-07-26T14:10:58Z</time>
      </trkpt>
      <trkpt lat="49.32218" lon="-1.26458">
        <ele>2</ele>
        <time>2023-07-26T14:11:02Z</time>
      </trkpt>
      <trkpt lat="49.32214" lon="-1.2647">
        <ele>2</ele>
        <time>2023-07-26T14:11:10Z</time>
      </trkpt>
      <trkpt lat="49.32212" lon="-1.26477">
        <ele>2</ele>
        <time>2023-07-26T14:11:14Z</time>
      </trkpt>
      <trkpt lat="49.32207" lon="-1.26495">
        <ele>3</ele>
        <time>2023-07-26T14:11:26Z</time>
      </trkpt>
      <trkpt lat="49.32191" lon="-1.26546">
        <ele>4</ele>
        <time>2023-07-26T14:12:01Z</time>
      </trkpt>
      <trkpt lat="49.32189" lon="-1.26559">
        <ele>4</ele>
        <time>2023-07-26T14:13:04Z</time>
      </trkpt>
      <trkpt lat="49.32183" lon="-1.26572">
        <ele>4</ele>
        <time>2023-07-26T14:13:15Z</time>
      </trkpt>
      <trkpt lat="49.32178" lon="-1.26568">
        <ele>5</ele>
        <time>2023-07-26T14:13:50Z</time>
      </trkpt>
      <trkpt lat="49.32162" lon="-1.26554">
        <ele>5</ele>
        <time>2023-07-26T14:14:10Z</time>
      </trkpt>
      <trkpt lat="49.32157" lon="-1.26554">
        <ele>5</ele>
        <time>2023-07-26T14:14:14Z</time>
      </trkpt>
      <trkpt lat="49.32153" lon="-1.26556">
        <ele>5</ele>
        <time>2023-07-26T14:14:17Z</time>
      </trkpt>
      <trkpt lat="49.32151" lon="-1.26564">
        <ele>5</ele>
        <time>2023-07-26T14:14:22Z</time>
      </trkpt>
      <trkpt lat="49.32143" lon="-1.26565">
        <ele>4</ele>
        <time>2023-07-26T14:14:39Z</time>
      </trkpt>
      <trkpt lat="49.32135" lon="-1.2656">
        <ele>4</ele>
        <time>2023-07-26T14:14:47Z</time>
      </trkpt>
      <trkpt lat="49.3213" lon="-1.26555">
        <ele>4</ele>
        <time>2023-07-26T14:14:57Z</time>
      </trkpt>
      <trkpt lat="49.32125" lon="-1.26552">
        <ele>5</ele>
        <time>2023-07-26T14:15:02Z</time>
      </trkpt>
      <trkpt lat="49.32118" lon="-1.26543">
        <ele>5</ele>
        <time>2023-07-26T14:15:09Z</time>
      </trkpt>
      <trkpt lat="49.32114" lon="-1.26541">
        <ele>5</ele>
        <time>2023-07-26T14:15:14Z</time>
      </trkpt>
      <trkpt lat="49.32108" lon="-1.26532">
        <ele>5</ele>
        <time>2023-07-26T14:16:15Z</time>
      </trkpt>
      <trkpt lat="49.32105" lon="-1.26526">
        <ele>5</ele>
        <time>2023-07-26T14:16:19Z</time>
      </trkpt>
      <trkpt lat="49.32102" lon="-1.26513">
        <ele>5</ele>
        <time>2023-07-26T14:16:27Z</time>
      </trkpt>
      <trkpt lat="49.32098" lon="-1.26508">
        <ele>6</ele>
        <time>2023-07-26T14:16:32Z</time>
      </trkpt>
      <trkpt lat="49.32061" lon="-1.265">
        <ele>6</ele>
        <time>2023-07-26T14:17:06Z</time>
      </trkpt>
      <trkpt lat="49.32051" lon="-1.26497">
        <ele>5</ele>
        <time>2023-07-26T14:17:15Z</time>
      </trkpt>
      <trkpt lat="49.32044" lon="-1.26497">
        <ele>5</ele>
        <time>2023-07-26T14:17:23Z</time>
      </trkpt>
      <trkpt lat="49.3204" lon="-1.26502">
        <ele>5</ele>
        <time>2023-07-26T14:17:28Z</time>
      </trkpt>
      <trkpt lat="49.32038" lon="-1.26507">
        <ele>4</ele>
        <time>2023-07-26T14:17:32Z</time>
      </trkpt>
      <trkpt lat="49.32038" lon="-1.26514">
        <ele>3</ele>
        <time>2023-07-26T14:17:36Z</time>
      </trkpt>
      <trkpt lat="49.32036" lon="-1.26524">
        <ele>3</ele>
        <time>2023-07-26T14:17:45Z</time>
      </trkpt>
      <trkpt lat="49.32035" lon="-1.26531">
        <ele>3</ele>
        <time>2023-07-26T14:17:49Z</time>
      </trkpt>
      <trkpt lat="49.32034" lon="-1.26537">
        <ele>3</ele>
        <time>2023-07-26T14:17:53Z</time>
      </trkpt>
      <trkpt lat="49.32028" lon="-1.26538">
        <ele>3</ele>
        <time>2023-07-26T14:18:01Z</time>
      </trkpt>
    </trkseg>
  </trk>
</gpx>